<?xml version="1.0" encoding="UTF-8" standalone="no" ?>
<gpx xmlns="http://www.topografix.com/GPX/1/1" xmlns:xsi="http://www.w3.org/2001/XMLSchema-instance" xsi:schemaLocation="http://www.topografix.com/GPX/1/1 http://www.topografix.com/GPX/1/1/gpx.xsd" version="1.1" creator="VisuGPX - https://www.visugpx.com">
  <metadata>
    <name>Sommet du #Puy Mary au départ de #Mandailles-Saint-Julien Boucle Ligne de crêtes</name>
    <desc><![CDATA[Cette boucle autour du Puy Mary offre l’un des panoramas les plus spectaculaires du Massif cantalien, avec des crêtes volcaniques qui semblent flotter au‑dessus des vallées.
Chaque montée révèle un nouveau décor, du Pas de Peyrol à la Brèche de Rolland, comme si le paysage se déployait étape après étape.
Les arêtes aériennes entre le Puy Mary et Peyre Arse procurent une sensation de liberté rare, portée par le vent et l’altitude.
Les descentes vers Mandailes ouvrent sur des vallons verdoyants où l’on marche dans un silence presque total.
La variété du terrain — crêtes, cols, pâturages, passages rocheux — transforme la randonnée en véritable voyage.
Et au sommet, la vue à 360° donne cette impression unique d’être au cœur d’un immense volcan endormi, un moment qui vaut à lui seul tout l’effort.
Vidéo de présentation:
https://www.youtube.com/watch?v=1G2odiBGSPo&t=1s]]></desc>
  </metadata>
  <wpt lat="45.07852" lon="2.66981">
    <ele>980.5</ele>
    <name><![CDATA[Parking]]></name>
  </wpt>
  <wpt lat="45.10304" lon="2.71648">
    <ele>1527.8</ele>
    <name><![CDATA[Col de Cabre]]></name>
  </wpt>
  <wpt lat="45.10369" lon="2.71624">
    <ele>1531.7</ele>
    <name><![CDATA[Ligne de crêtes]]></name>
  </wpt>
  <wpt lat="45.10434" lon="2.69909">
    <ele>1646.3</ele>
    <name><![CDATA[Vue sur la ligne de crête du Puy Mary]]></name>
  </wpt>
  <wpt lat="45.10323" lon="2.69025">
    <ele>1653.4</ele>
    <name><![CDATA[Entre Puy du Peyre Arse et Puy Mary]]></name>
  </wpt>
  <wpt lat="45.10371" lon="2.68569">
    <ele>1623.1</ele>
    <name><![CDATA[Brèche de Roland]]></name>
  </wpt>
  <wpt lat="45.10562" lon="2.68226">
    <ele>1610.2</ele>
    <name><![CDATA[Sentier de randonnée vers le Puy de Sancy]]></name>
  </wpt>
  <wpt lat="45.10669" lon="2.68074">
    <ele>1608.6</ele>
    <name><![CDATA[Au pied du Puy Mary]]></name>
  </wpt>
  <wpt lat="45.10932" lon="2.67624">
    <ele>1769.6</ele>
    <name><![CDATA[Sommet du Puy Mary]]></name>
  </wpt>
  <wpt lat="45.1141" lon="2.67175">
    <ele>1587.7</ele>
    <name><![CDATA[Pas de Peyrol]]></name>
  </wpt>
  <wpt lat="45.10438" lon="2.66204">
    <ele>1528.9</ele>
    <name><![CDATA[Col de montagne]]></name>
  </wpt>
  <trk>
    <name><![CDATA[GPX Download: Boucle Ligne de crêtes – Sommet du Puy Mary au départ de Mandailles-Saint-Julien]]></name>
    <extensions>
      <line xmlns="http://www.topografix.com/GPX/gpx_style/0/2">
        <color>0000FF</color>
        <width>4</width>
      </line>
    </extensions>
    <trkseg>
      <trkpt lat="45.07856" lon="2.66978">
        <ele>984.115865</ele>
        <time>2026-04-25T15:40:57.284Z</time>
      </trkpt>
      <trkpt lat="45.07877" lon="2.6703">
        <ele>984.115865</ele>
        <time>2026-04-25T15:41:45.955Z</time>
      </trkpt>
      <trkpt lat="45.07878" lon="2.67054">
        <ele>984.115865</ele>
        <time>2026-04-25T15:42:06.165Z</time>
      </trkpt>
      <trkpt lat="45.0788" lon="2.67066">
        <ele>984.115865</ele>
        <time>2026-04-25T15:42:16.748Z</time>
      </trkpt>
      <trkpt lat="45.079" lon="2.67113">
        <ele>985.067973</ele>
        <time>2026-04-25T15:43:04.831Z</time>
      </trkpt>
      <trkpt lat="45.07908" lon="2.67152">
        <ele>986.690684</ele>
        <time>2026-04-25T15:43:41.516Z</time>
      </trkpt>
      <trkpt lat="45.07953" lon="2.67269">
        <ele>991.961094</ele>
        <time>2026-04-25T15:45:35.310Z</time>
      </trkpt>
      <trkpt lat="45.07989" lon="2.67332">
        <ele>994.472645</ele>
        <time>2026-04-25T15:46:40.440Z</time>
      </trkpt>
      <trkpt lat="45.08022" lon="2.6735">
        <ele>995.044587</ele>
        <time>2026-04-25T15:47:18.551Z</time>
      </trkpt>
      <trkpt lat="45.08043" lon="2.67373">
        <ele>995.471699</ele>
        <time>2026-04-25T15:47:45.754Z</time>
      </trkpt>
      <trkpt lat="45.08058" lon="2.67397">
        <ele>995.846845</ele>
        <time>2026-04-25T15:48:09.000Z</time>
      </trkpt>
      <trkpt lat="45.08104" lon="2.6743">
        <ele>996.698591</ele>
        <time>2026-04-25T15:49:02.640Z</time>
      </trkpt>
      <trkpt lat="45.08142" lon="2.67464">
        <ele>997.251068</ele>
        <time>2026-04-25T15:49:48.733Z</time>
      </trkpt>
      <trkpt lat="45.0815" lon="2.67473">
        <ele>997.317836</ele>
        <time>2026-04-25T15:49:59.292Z</time>
      </trkpt>
      <trkpt lat="45.08173" lon="2.67483">
        <ele>997.470764</ele>
        <time>2026-04-25T15:50:23.388Z</time>
      </trkpt>
      <trkpt lat="45.08194" lon="2.67509">
        <ele>997.645777</ele>
        <time>2026-04-25T15:50:51.201Z</time>
      </trkpt>
      <trkpt lat="45.08205" lon="2.67512">
        <ele>997.716214</ele>
        <time>2026-04-25T15:51:02.403Z</time>
      </trkpt>
      <trkpt lat="45.08234" lon="2.67546">
        <ele>997.95516</ele>
        <time>2026-04-25T15:51:40.179Z</time>
      </trkpt>
      <trkpt lat="45.08244" lon="2.67551">
        <ele>998.023082</ele>
        <time>2026-04-25T15:51:51.038Z</time>
      </trkpt>
      <trkpt lat="45.08267" lon="2.67583">
        <ele>998.229114</ele>
        <time>2026-04-25T15:52:24.842Z</time>
      </trkpt>
      <trkpt lat="45.08283" lon="2.67587">
        <ele>998.79977</ele>
        <time>2026-04-25T15:52:42.415Z</time>
      </trkpt>
      <trkpt lat="45.08302" lon="2.67602">
        <ele>1000.148484</ele>
        <time>2026-04-25T15:53:06.153Z</time>
      </trkpt>
      <trkpt lat="45.0834" lon="2.67626">
        <ele>1002.73876</ele>
        <time>2026-04-25T15:53:53.983Z</time>
      </trkpt>
      <trkpt lat="45.08372" lon="2.67673">
        <ele>1005.610739</ele>
        <time>2026-04-25T15:54:51.011Z</time>
      </trkpt>
      <trkpt lat="45.08407" lon="2.67721">
        <ele>1008.634802</ele>
        <time>2026-04-25T15:55:54.801Z</time>
      </trkpt>
      <trkpt lat="45.08418" lon="2.6777">
        <ele>1011.696862</ele>
        <time>2026-04-25T15:56:43.257Z</time>
      </trkpt>
      <trkpt lat="45.08419" lon="2.67791">
        <ele>1013.169462</ele>
        <time>2026-04-25T15:57:03.384Z</time>
      </trkpt>
      <trkpt lat="45.08433" lon="2.67825">
        <ele>1015.905628</ele>
        <time>2026-04-25T15:57:40.768Z</time>
      </trkpt>
      <trkpt lat="45.08438" lon="2.67848">
        <ele>1017.576808</ele>
        <time>2026-04-25T15:58:03.668Z</time>
      </trkpt>
      <trkpt lat="45.08488" lon="2.67895">
        <ele>1023.465049</ele>
        <time>2026-04-25T15:59:24.139Z</time>
      </trkpt>
      <trkpt lat="45.08505" lon="2.67916">
        <ele>1025.633638</ele>
        <time>2026-04-25T15:59:53.618Z</time>
      </trkpt>
      <trkpt lat="45.0853" lon="2.67959">
        <ele>1029.14583</ele>
        <time>2026-04-25T16:00:46.061Z</time>
      </trkpt>
      <trkpt lat="45.08537" lon="2.67997">
        <ele>1031.417527</ele>
        <time>2026-04-25T16:01:21.911Z</time>
      </trkpt>
      <trkpt lat="45.08548" lon="2.68031">
        <ele>1033.530249</ele>
        <time>2026-04-25T16:01:54.953Z</time>
      </trkpt>
      <trkpt lat="45.08558" lon="2.68098">
        <ele>1037.48009</ele>
        <time>2026-04-25T16:02:55.593Z</time>
      </trkpt>
      <trkpt lat="45.08564" lon="2.68112">
        <ele>1038.443911</ele>
        <time>2026-04-25T16:03:10.286Z</time>
      </trkpt>
      <trkpt lat="45.08607" lon="2.68158">
        <ele>1043.13365</ele>
        <time>2026-04-25T16:04:18.601Z</time>
      </trkpt>
      <trkpt lat="45.08623" lon="2.68178">
        <ele>1045.240404</ele>
        <time>2026-04-25T16:04:45.101Z</time>
      </trkpt>
      <trkpt lat="45.08631" lon="2.68192">
        <ele>1046.495131</ele>
        <time>2026-04-25T16:05:01.090Z</time>
      </trkpt>
      <trkpt lat="45.08638" lon="2.68215">
        <ele>1048.326958</ele>
        <time>2026-04-25T16:05:24.609Z</time>
      </trkpt>
      <trkpt lat="45.08649" lon="2.68295">
        <ele>1054.084203</ele>
        <time>2026-04-25T16:06:41.459Z</time>
      </trkpt>
      <trkpt lat="45.08653" lon="2.68373">
        <ele>1059.713495</ele>
        <time>2026-04-25T16:08:02.236Z</time>
      </trkpt>
      <trkpt lat="45.0865" lon="2.68418">
        <ele>1063.280253</ele>
        <time>2026-04-25T16:08:48.264Z</time>
      </trkpt>
      <trkpt lat="45.08649" lon="2.68589">
        <ele>1077.173561</ele>
        <time>2026-04-25T16:11:41.543Z</time>
      </trkpt>
      <trkpt lat="45.08644" lon="2.68627">
        <ele>1080.312902</ele>
        <time>2026-04-25T16:12:18.497Z</time>
      </trkpt>
      <trkpt lat="45.08637" lon="2.68644">
        <ele>1081.390048</ele>
        <time>2026-04-25T16:12:36.819Z</time>
      </trkpt>
      <trkpt lat="45.08635" lon="2.68662">
        <ele>1082.327415</ele>
        <time>2026-04-25T16:12:54.262Z</time>
      </trkpt>
      <trkpt lat="45.08636" lon="2.68682">
        <ele>1083.324682</ele>
        <time>2026-04-25T16:13:12.585Z</time>
      </trkpt>
      <trkpt lat="45.08647" lon="2.68759">
        <ele>1087.255488</ele>
        <time>2026-04-25T16:14:23.316Z</time>
      </trkpt>
      <trkpt lat="45.08665" lon="2.68823">
        <ele>1090.689575</ele>
        <time>2026-04-25T16:15:20.875Z</time>
      </trkpt>
      <trkpt lat="45.08668" lon="2.68883">
        <ele>1093.612753</ele>
        <time>2026-04-25T16:16:08.718Z</time>
      </trkpt>
      <trkpt lat="45.08671" lon="2.68901">
        <ele>1094.452454</ele>
        <time>2026-04-25T16:16:24.266Z</time>
      </trkpt>
      <trkpt lat="45.08684" lon="2.68952">
        <ele>1096.809759</ele>
        <time>2026-04-25T16:17:08.832Z</time>
      </trkpt>
      <trkpt lat="45.08697" lon="2.69075">
        <ele>1102.294023</ele>
        <time>2026-04-25T16:18:59.161Z</time>
      </trkpt>
      <trkpt lat="45.08712" lon="2.69081">
        <ele>1103.271634</ele>
        <time>2026-04-25T16:19:19.752Z</time>
      </trkpt>
      <trkpt lat="45.08719" lon="2.6909">
        <ele>1103.841676</ele>
        <time>2026-04-25T16:19:31.343Z</time>
      </trkpt>
      <trkpt lat="45.0872" lon="2.69129">
        <ele>1104.91734</ele>
        <time>2026-04-25T16:20:04.310Z</time>
      </trkpt>
      <trkpt lat="45.08728" lon="2.6916">
        <ele>1105.489187</ele>
        <time>2026-04-25T16:20:31.578Z</time>
      </trkpt>
      <trkpt lat="45.08749" lon="2.6921">
        <ele>1106.479774</ele>
        <time>2026-04-25T16:21:17.355Z</time>
      </trkpt>
      <trkpt lat="45.08755" lon="2.69217">
        <ele>1106.664043</ele>
        <time>2026-04-25T16:21:25.647Z</time>
      </trkpt>
      <trkpt lat="45.08766" lon="2.69222">
        <ele>1106.950988</ele>
        <time>2026-04-25T16:21:38.374Z</time>
      </trkpt>
      <trkpt lat="45.08788" lon="2.69231">
        <ele>1107.49568</ele>
        <time>2026-04-25T16:22:02.084Z</time>
      </trkpt>
      <trkpt lat="45.0884" lon="2.69286">
        <ele>1108.794969</ele>
        <time>2026-04-25T16:23:06.966Z</time>
      </trkpt>
      <trkpt lat="45.08871" lon="2.69311">
        <ele>1108.547117</ele>
        <time>2026-04-25T16:23:43.417Z</time>
      </trkpt>
      <trkpt lat="45.08919" lon="2.69323">
        <ele>1108.207163</ele>
        <time>2026-04-25T16:24:33.019Z</time>
      </trkpt>
      <trkpt lat="45.08933" lon="2.69332">
        <ele>1108.099789</ele>
        <time>2026-04-25T16:24:48.957Z</time>
      </trkpt>
      <trkpt lat="45.08943" lon="2.69359">
        <ele>1107.95001</ele>
        <time>2026-04-25T16:25:11.189Z</time>
      </trkpt>
      <trkpt lat="45.08944" lon="2.69373">
        <ele>1107.880758</ele>
        <time>2026-04-25T16:25:21.428Z</time>
      </trkpt>
      <trkpt lat="45.08955" lon="2.69385">
        <ele>1107.783081</ele>
        <time>2026-04-25T16:25:35.881Z</time>
      </trkpt>
      <trkpt lat="45.08959" lon="2.69387">
        <ele>1107.749495</ele>
        <time>2026-04-25T16:25:40.808Z</time>
      </trkpt>
      <trkpt lat="45.08964" lon="2.6938">
        <ele>1107.702673</ele>
        <time>2026-04-25T16:25:47.799Z</time>
      </trkpt>
      <trkpt lat="45.08964" lon="2.69358">
        <ele>1107.672583</ele>
        <time>2026-04-25T16:26:03.814Z</time>
      </trkpt>
      <trkpt lat="45.08972" lon="2.6936">
        <ele>1108.144036</ele>
        <time>2026-04-25T16:26:11.517Z</time>
      </trkpt>
      <trkpt lat="45.08979" lon="2.69355">
        <ele>1108.633124</ele>
        <time>2026-04-25T16:26:19.646Z</time>
      </trkpt>
      <trkpt lat="45.08987" lon="2.69355">
        <ele>1109.124697</ele>
        <time>2026-04-25T16:26:27.800Z</time>
      </trkpt>
      <trkpt lat="45.08991" lon="2.6936">
        <ele>1109.44564</ele>
        <time>2026-04-25T16:26:33.146Z</time>
      </trkpt>
      <trkpt lat="45.09003" lon="2.69387">
        <ele>1110.827679</ele>
        <time>2026-04-25T16:26:56.651Z</time>
      </trkpt>
      <trkpt lat="45.09007" lon="2.69403">
        <ele>1111.557947</ele>
        <time>2026-04-25T16:27:09.378Z</time>
      </trkpt>
      <trkpt lat="45.09031" lon="2.69441">
        <ele>1113.780881</ele>
        <time>2026-04-25T16:27:50.355Z</time>
      </trkpt>
      <trkpt lat="45.09037" lon="2.69445">
        <ele>1114.192569</ele>
        <time>2026-04-25T16:27:58.650Z</time>
      </trkpt>
      <trkpt lat="45.0904" lon="2.69462">
        <ele>1114.956477</ele>
        <time>2026-04-25T16:28:14.651Z</time>
      </trkpt>
      <trkpt lat="45.09045" lon="2.69466">
        <ele>1115.284276</ele>
        <time>2026-04-25T16:28:21.650Z</time>
      </trkpt>
      <trkpt lat="45.09048" lon="2.69462">
        <ele>1115.515081</ele>
        <time>2026-04-25T16:28:26.706Z</time>
      </trkpt>
      <trkpt lat="45.09053" lon="2.69458">
        <ele>1115.909528</ele>
        <time>2026-04-25T16:28:37.909Z</time>
      </trkpt>
      <trkpt lat="45.09057" lon="2.69466">
        <ele>1116.317363</ele>
        <time>2026-04-25T16:28:49.263Z</time>
      </trkpt>
      <trkpt lat="45.09064" lon="2.69471">
        <ele>1116.775994</ele>
        <time>2026-04-25T16:29:02.599Z</time>
      </trkpt>
      <trkpt lat="45.09072" lon="2.69469">
        <ele>1117.328276</ele>
        <time>2026-04-25T16:29:18.967Z</time>
      </trkpt>
      <trkpt lat="45.09081" lon="2.69473">
        <ele>1117.917591</ele>
        <time>2026-04-25T16:29:36.943Z</time>
      </trkpt>
      <trkpt lat="45.09088" lon="2.69489">
        <ele>1118.783292</ele>
        <time>2026-04-25T16:30:01.429Z</time>
      </trkpt>
      <trkpt lat="45.09088" lon="2.69525">
        <ele>1123.375684</ele>
        <time>2026-04-25T16:30:53.362Z</time>
      </trkpt>
      <trkpt lat="45.09091" lon="2.69509">
        <ele>1125.489995</ele>
        <time>2026-04-25T16:31:18.916Z</time>
      </trkpt>
      <trkpt lat="45.09099" lon="2.69509">
        <ele>1127.049094</ele>
        <time>2026-04-25T16:31:38.442Z</time>
      </trkpt>
      <trkpt lat="45.09098" lon="2.69502">
        <ele>1127.949368</ele>
        <time>2026-04-25T16:31:49.772Z</time>
      </trkpt>
      <trkpt lat="45.09107" lon="2.695">
        <ele>1129.612119</ele>
        <time>2026-04-25T16:32:10.959Z</time>
      </trkpt>
      <trkpt lat="45.09105" lon="2.69491">
        <ele>1130.831499</ele>
        <time>2026-04-25T16:32:26.598Z</time>
      </trkpt>
      <trkpt lat="45.09108" lon="2.69479">
        <ele>1132.357779</ele>
        <time>2026-04-25T16:32:46.693Z</time>
      </trkpt>
      <trkpt lat="45.09114" lon="2.69476">
        <ele>1133.548247</ele>
        <time>2026-04-25T16:33:02.773Z</time>
      </trkpt>
      <trkpt lat="45.09117" lon="2.69471">
        <ele>1134.39924</ele>
        <time>2026-04-25T16:33:14.193Z</time>
      </trkpt>
      <trkpt lat="45.09128" lon="2.69475">
        <ele>1136.419231</ele>
        <time>2026-04-25T16:33:41.280Z</time>
      </trkpt>
      <trkpt lat="45.09137" lon="2.69486">
        <ele>1138.48622</ele>
        <time>2026-04-25T16:34:09.376Z</time>
      </trkpt>
      <trkpt lat="45.09139" lon="2.69485">
        <ele>1138.955107</ele>
        <time>2026-04-25T16:34:15.723Z</time>
      </trkpt>
      <trkpt lat="45.09135" lon="2.6948">
        <ele>1139.912692</ele>
        <time>2026-04-25T16:34:28.647Z</time>
      </trkpt>
      <trkpt lat="45.09141" lon="2.69481">
        <ele>1141.024988</ele>
        <time>2026-04-25T16:34:43.921Z</time>
      </trkpt>
      <trkpt lat="45.09144" lon="2.69493">
        <ele>1142.593376</ele>
        <time>2026-04-25T16:35:05.692Z</time>
      </trkpt>
      <trkpt lat="45.09167" lon="2.69501">
        <ele>1146.840019</ele>
        <time>2026-04-25T16:36:05.243Z</time>
      </trkpt>
      <trkpt lat="45.09182" lon="2.6953">
        <ele>1151.389659</ele>
        <time>2026-04-25T16:37:08.637Z</time>
      </trkpt>
      <trkpt lat="45.09189" lon="2.69523">
        <ele>1152.998568</ele>
        <time>2026-04-25T16:37:30.408Z</time>
      </trkpt>
      <trkpt lat="45.09195" lon="2.69527">
        <ele>1154.137127</ele>
        <time>2026-04-25T16:37:46.074Z</time>
      </trkpt>
      <trkpt lat="45.09197" lon="2.69532">
        <ele>1154.998995</ele>
        <time>2026-04-25T16:37:57.557Z</time>
      </trkpt>
      <trkpt lat="45.09209" lon="2.69512">
        <ele>1158.396214</ele>
        <time>2026-04-25T16:38:43.748Z</time>
      </trkpt>
      <trkpt lat="45.09211" lon="2.69531">
        <ele>1160.81513</ele>
        <time>2026-04-25T16:39:16.767Z</time>
      </trkpt>
      <trkpt lat="45.09228" lon="2.6955">
        <ele>1164.831405</ele>
        <time>2026-04-25T16:40:11.532Z</time>
      </trkpt>
      <trkpt lat="45.09244" lon="2.69587">
        <ele>1170.596607</ele>
        <time>2026-04-25T16:41:26.497Z</time>
      </trkpt>
      <trkpt lat="45.09246" lon="2.69576">
        <ele>1172.117821</ele>
        <time>2026-04-25T16:41:45.659Z</time>
      </trkpt>
      <trkpt lat="45.09243" lon="2.69557">
        <ele>1174.591664</ele>
        <time>2026-04-25T16:42:16.105Z</time>
      </trkpt>
      <trkpt lat="45.09246" lon="2.69545">
        <ele>1176.32761</ele>
        <time>2026-04-25T16:42:36.603Z</time>
      </trkpt>
      <trkpt lat="45.09252" lon="2.69537">
        <ele>1177.745231</ele>
        <time>2026-04-25T16:42:52.438Z</time>
      </trkpt>
      <trkpt lat="45.09249" lon="2.6952">
        <ele>1180.007554</ele>
        <time>2026-04-25T16:43:17.428Z</time>
      </trkpt>
      <trkpt lat="45.09251" lon="2.69503">
        <ele>1182.269341</ele>
        <time>2026-04-25T16:43:41.937Z</time>
      </trkpt>
      <trkpt lat="45.09248" lon="2.69493">
        <ele>1183.667746</ele>
        <time>2026-04-25T16:43:56.548Z</time>
      </trkpt>
      <trkpt lat="45.0925" lon="2.6948">
        <ele>1185.407495</ele>
        <time>2026-04-25T16:44:13.098Z</time>
      </trkpt>
      <trkpt lat="45.09247" lon="2.69473">
        <ele>1186.413993</ele>
        <time>2026-04-25T16:44:24.680Z</time>
      </trkpt>
      <trkpt lat="45.09253" lon="2.69445">
        <ele>1190.324919</ele>
        <time>2026-04-25T16:45:09.105Z</time>
      </trkpt>
      <trkpt lat="45.09244" lon="2.69421">
        <ele>1194.011767</ele>
        <time>2026-04-25T16:45:53.899Z</time>
      </trkpt>
      <trkpt lat="45.09237" lon="2.69396">
        <ele>1197.597956</ele>
        <time>2026-04-25T16:46:41.927Z</time>
      </trkpt>
      <trkpt lat="45.09236" lon="2.69362">
        <ele>1202.304991</ele>
        <time>2026-04-25T16:47:43.243Z</time>
      </trkpt>
      <trkpt lat="45.0924" lon="2.69354">
        <ele>1203.585319</ele>
        <time>2026-04-25T16:48:01.275Z</time>
      </trkpt>
      <trkpt lat="45.09237" lon="2.69338">
        <ele>1205.761757</ele>
        <time>2026-04-25T16:48:22.496Z</time>
      </trkpt>
      <trkpt lat="45.09245" lon="2.69341">
        <ele>1207.441812</ele>
        <time>2026-04-25T16:48:40.489Z</time>
      </trkpt>
      <trkpt lat="45.09255" lon="2.69338">
        <ele>1209.341802</ele>
        <time>2026-04-25T16:49:00.774Z</time>
      </trkpt>
      <trkpt lat="45.09294" lon="2.69315">
        <ele>1217.413659</ele>
        <time>2026-04-25T16:50:25.620Z</time>
      </trkpt>
      <trkpt lat="45.09316" lon="2.69315">
        <ele>1220.731858</ele>
        <time>2026-04-25T16:51:11.701Z</time>
      </trkpt>
      <trkpt lat="45.09342" lon="2.69309">
        <ele>1224.363644</ele>
        <time>2026-04-25T16:52:04.560Z</time>
      </trkpt>
      <trkpt lat="45.09349" lon="2.69312">
        <ele>1225.406056</ele>
        <time>2026-04-25T16:52:20.728Z</time>
      </trkpt>
      <trkpt lat="45.09376" lon="2.69312">
        <ele>1229.147715</ele>
        <time>2026-04-25T16:53:08.461Z</time>
      </trkpt>
      <trkpt lat="45.09378" lon="2.69316">
        <ele>1229.741004</ele>
        <time>2026-04-25T16:53:15.598Z</time>
      </trkpt>
      <trkpt lat="45.09359" lon="2.69338">
        <ele>1233.175066</ele>
        <time>2026-04-25T16:53:50.426Z</time>
      </trkpt>
      <trkpt lat="45.09334" lon="2.69377">
        <ele>1238.338034</ele>
        <time>2026-04-25T16:54:38.350Z</time>
      </trkpt>
      <trkpt lat="45.09331" lon="2.69391">
        <ele>1239.853294</ele>
        <time>2026-04-25T16:54:51.923Z</time>
      </trkpt>
      <trkpt lat="45.0933" lon="2.69407">
        <ele>1241.401707</ele>
        <time>2026-04-25T16:55:06.195Z</time>
      </trkpt>
      <trkpt lat="45.09343" lon="2.69495">
        <ele>1249.756165</ele>
        <time>2026-04-25T16:56:26.767Z</time>
      </trkpt>
      <trkpt lat="45.09374" lon="2.69593">
        <ele>1259.506381</ele>
        <time>2026-04-25T16:58:15.910Z</time>
      </trkpt>
      <trkpt lat="45.094" lon="2.69635">
        <ele>1264.488084</ele>
        <time>2026-04-25T16:59:25.843Z</time>
      </trkpt>
      <trkpt lat="45.09407" lon="2.69647">
        <ele>1265.887102</ele>
        <time>2026-04-25T16:59:46.714Z</time>
      </trkpt>
      <trkpt lat="45.0945" lon="2.6969">
        <ele>1274.097655</ele>
        <time>2026-04-25T17:01:30.022Z</time>
      </trkpt>
      <trkpt lat="45.09507" lon="2.69728">
        <ele>1284.034382</ele>
        <time>2026-04-25T17:03:24.078Z</time>
      </trkpt>
      <trkpt lat="45.09535" lon="2.6974">
        <ele>1288.717068</ele>
        <time>2026-04-25T17:04:10.713Z</time>
      </trkpt>
      <trkpt lat="45.09543" lon="2.69748">
        <ele>1290.175458</ele>
        <time>2026-04-25T17:04:24.436Z</time>
      </trkpt>
      <trkpt lat="45.09551" lon="2.6977">
        <ele>1292.99028</ele>
        <time>2026-04-25T17:04:50.313Z</time>
      </trkpt>
      <trkpt lat="45.09595" lon="2.69825">
        <ele>1300.599402</ele>
        <time>2026-04-25T17:06:12.087Z</time>
      </trkpt>
      <trkpt lat="45.09602" lon="2.69842">
        <ele>1302.274202</ele>
        <time>2026-04-25T17:06:31.035Z</time>
      </trkpt>
      <trkpt lat="45.0962" lon="2.69874">
        <ele>1305.737873</ele>
        <time>2026-04-25T17:07:11.122Z</time>
      </trkpt>
      <trkpt lat="45.0963" lon="2.69883">
        <ele>1307.179941</ele>
        <time>2026-04-25T17:07:28.352Z</time>
      </trkpt>
      <trkpt lat="45.09709" lon="2.69894">
        <ele>1316.758821</ele>
        <time>2026-04-25T17:09:29.046Z</time>
      </trkpt>
      <trkpt lat="45.09741" lon="2.69903">
        <ele>1319.427336</ele>
        <time>2026-04-25T17:10:15.164Z</time>
      </trkpt>
      <trkpt lat="45.09772" lon="2.69894">
        <ele>1321.97716</ele>
        <time>2026-04-25T17:10:56.551Z</time>
      </trkpt>
      <trkpt lat="45.09787" lon="2.69895">
        <ele>1323.194067</ele>
        <time>2026-04-25T17:11:15.373Z</time>
      </trkpt>
      <trkpt lat="45.09809" lon="2.69904">
        <ele>1325.109042</ele>
        <time>2026-04-25T17:11:44.532Z</time>
      </trkpt>
      <trkpt lat="45.0981" lon="2.69918">
        <ele>1325.958519</ele>
        <time>2026-04-25T17:11:57.500Z</time>
      </trkpt>
      <trkpt lat="45.098" lon="2.69942">
        <ele>1327.520333</ele>
        <time>2026-04-25T17:12:20.775Z</time>
      </trkpt>
      <trkpt lat="45.09794" lon="2.69952">
        <ele>1328.321781</ele>
        <time>2026-04-25T17:12:32.655Z</time>
      </trkpt>
      <trkpt lat="45.09787" lon="2.69974">
        <ele>1329.723207</ele>
        <time>2026-04-25T17:12:52.765Z</time>
      </trkpt>
      <trkpt lat="45.09805" lon="2.70015">
        <ele>1332.030394</ele>
        <time>2026-04-25T17:13:32.801Z</time>
      </trkpt>
      <trkpt lat="45.09812" lon="2.70062">
        <ele>1333.443407</ele>
        <time>2026-04-25T17:14:12.565Z</time>
      </trkpt>
      <trkpt lat="45.09813" lon="2.70098">
        <ele>1334.501414</ele>
        <time>2026-04-25T17:14:42.596Z</time>
      </trkpt>
      <trkpt lat="45.09827" lon="2.70159">
        <ele>1336.376411</ele>
        <time>2026-04-25T17:15:35.356Z</time>
      </trkpt>
      <trkpt lat="45.09851" lon="2.70227">
        <ele>1338.636064</ele>
        <time>2026-04-25T17:16:36.263Z</time>
      </trkpt>
      <trkpt lat="45.09856" lon="2.70251">
        <ele>1339.126384</ele>
        <time>2026-04-25T17:16:54.477Z</time>
      </trkpt>
      <trkpt lat="45.09853" lon="2.70266">
        <ele>1339.303894</ele>
        <time>2026-04-25T17:17:06.244Z</time>
      </trkpt>
      <trkpt lat="45.09841" lon="2.7029">
        <ele>1339.638792</ele>
        <time>2026-04-25T17:17:28.311Z</time>
      </trkpt>
      <trkpt lat="45.09841" lon="2.70305">
        <ele>1339.802315</ele>
        <time>2026-04-25T17:17:38.972Z</time>
      </trkpt>
      <trkpt lat="45.09848" lon="2.7033">
        <ele>1340.103455</ele>
        <time>2026-04-25T17:17:58.489Z</time>
      </trkpt>
      <trkpt lat="45.09872" lon="2.70389">
        <ele>1340.861391</ele>
        <time>2026-04-25T17:18:47.470Z</time>
      </trkpt>
      <trkpt lat="45.09879" lon="2.70404">
        <ele>1341.06362</ele>
        <time>2026-04-25T17:19:00.686Z</time>
      </trkpt>
      <trkpt lat="45.09897" lon="2.70428">
        <ele>1341.455898</ele>
        <time>2026-04-25T17:19:26.626Z</time>
      </trkpt>
      <trkpt lat="45.09911" lon="2.70441">
        <ele>1341.721148</ele>
        <time>2026-04-25T17:19:44.253Z</time>
      </trkpt>
      <trkpt lat="45.09951" lon="2.70467">
        <ele>1343.057067</ele>
        <time>2026-04-25T17:20:32.299Z</time>
      </trkpt>
      <trkpt lat="45.09983" lon="2.705">
        <ele>1344.34603</ele>
        <time>2026-04-25T17:21:17.578Z</time>
      </trkpt>
      <trkpt lat="45.10014" lon="2.70522">
        <ele>1345.490501</ele>
        <time>2026-04-25T17:21:57.822Z</time>
      </trkpt>
      <trkpt lat="45.10034" lon="2.70531">
        <ele>1346.180489</ele>
        <time>2026-04-25T17:22:21.666Z</time>
      </trkpt>
      <trkpt lat="45.10034" lon="2.70531">
        <ele>1346.180489</ele>
        <time>2026-04-25T17:22:21.666Z</time>
      </trkpt>
      <trkpt lat="45.10052" lon="2.70537">
        <ele>1346.794626</ele>
        <time>2026-04-25T17:22:42.514Z</time>
      </trkpt>
      <trkpt lat="45.10077" lon="2.70559">
        <ele>1347.757186</ele>
        <time>2026-04-25T17:23:14.274Z</time>
      </trkpt>
      <trkpt lat="45.10085" lon="2.70563">
        <ele>1347.953278</ele>
        <time>2026-04-25T17:23:24.077Z</time>
      </trkpt>
      <trkpt lat="45.10093" lon="2.70559">
        <ele>1348.130676</ele>
        <time>2026-04-25T17:23:33.025Z</time>
      </trkpt>
      <trkpt lat="45.10104" lon="2.7056">
        <ele>1348.35792</ele>
        <time>2026-04-25T17:23:44.469Z</time>
      </trkpt>
      <trkpt lat="45.1011" lon="2.70601">
        <ele>1349.010083</ele>
        <time>2026-04-25T17:24:18.365Z</time>
      </trkpt>
      <trkpt lat="45.10124" lon="2.70616">
        <ele>1349.396545</ele>
        <time>2026-04-25T17:24:39.512Z</time>
      </trkpt>
      <trkpt lat="45.10125" lon="2.70633">
        <ele>1349.653561</ele>
        <time>2026-04-25T17:24:53.725Z</time>
      </trkpt>
      <trkpt lat="45.10132" lon="2.70647">
        <ele>1349.919223</ele>
        <time>2026-04-25T17:25:07.344Z</time>
      </trkpt>
      <trkpt lat="45.10145" lon="2.70665">
        <ele>1350.309118</ele>
        <time>2026-04-25T17:25:25.713Z</time>
      </trkpt>
      <trkpt lat="45.10154" lon="2.7067">
        <ele>1350.511575</ele>
        <time>2026-04-25T17:25:35.384Z</time>
      </trkpt>
      <trkpt lat="45.10167" lon="2.70672">
        <ele>1350.809563</ele>
        <time>2026-04-25T17:25:49.399Z</time>
      </trkpt>
      <trkpt lat="45.10199" lon="2.70693">
        <ele>1351.554572</ele>
        <time>2026-04-25T17:26:24.267Z</time>
      </trkpt>
      <trkpt lat="45.10214" lon="2.70711">
        <ele>1352.393228</ele>
        <time>2026-04-25T17:26:45.497Z</time>
      </trkpt>
      <trkpt lat="45.10217" lon="2.70719">
        <ele>1352.671964</ele>
        <time>2026-04-25T17:26:51.838Z</time>
      </trkpt>
      <trkpt lat="45.10218" lon="2.70728">
        <ele>1352.965701</ele>
        <time>2026-04-25T17:26:58.631Z</time>
      </trkpt>
      <trkpt lat="45.10218" lon="2.70731">
        <ele>1353.086175</ele>
        <time>2026-04-25T17:27:01.489Z</time>
      </trkpt>
      <trkpt lat="45.10209" lon="2.70756">
        <ele>1353.99448</ele>
        <time>2026-04-25T17:27:23.032Z</time>
      </trkpt>
      <trkpt lat="45.10212" lon="2.70767">
        <ele>1354.346101</ele>
        <time>2026-04-25T17:27:31.683Z</time>
      </trkpt>
      <trkpt lat="45.1021" lon="2.70773">
        <ele>1354.544199</ele>
        <time>2026-04-25T17:27:36.511Z</time>
      </trkpt>
      <trkpt lat="45.10216" lon="2.70797">
        <ele>1355.370352</ele>
        <time>2026-04-25T17:27:56.782Z</time>
      </trkpt>
      <trkpt lat="45.10229" lon="2.70837">
        <ele>1356.801766</ele>
        <time>2026-04-25T17:28:32.017Z</time>
      </trkpt>
      <trkpt lat="45.10239" lon="2.70853">
        <ele>1357.465981</ele>
        <time>2026-04-25T17:28:48.068Z</time>
      </trkpt>
      <trkpt lat="45.10248" lon="2.7086">
        <ele>1357.931478</ele>
        <time>2026-04-25T17:28:59.254Z</time>
      </trkpt>
      <trkpt lat="45.10252" lon="2.70868">
        <ele>1358.240356</ele>
        <time>2026-04-25T17:29:07.014Z</time>
      </trkpt>
      <trkpt lat="45.10236" lon="2.70924">
        <ele>1361.007127</ele>
        <time>2026-04-25T17:30:03.080Z</time>
      </trkpt>
      <trkpt lat="45.1024" lon="2.70929">
        <ele>1361.873478</ele>
        <time>2026-04-25T17:30:10.820Z</time>
      </trkpt>
      <trkpt lat="45.10239" lon="2.70933">
        <ele>1362.367851</ele>
        <time>2026-04-25T17:30:15.285Z</time>
      </trkpt>
      <trkpt lat="45.10253" lon="2.70982">
        <ele>1368.42095</ele>
        <time>2026-04-25T17:31:12.766Z</time>
      </trkpt>
      <trkpt lat="45.10254" lon="2.70992">
        <ele>1369.609246</ele>
        <time>2026-04-25T17:31:24.814Z</time>
      </trkpt>
      <trkpt lat="45.10253" lon="2.70999">
        <ele>1370.488481</ele>
        <time>2026-04-25T17:31:33.788Z</time>
      </trkpt>
      <trkpt lat="45.10219" lon="2.7101">
        <ele>1376.213284</ele>
        <time>2026-04-25T17:32:35.229Z</time>
      </trkpt>
      <trkpt lat="45.10212" lon="2.7102">
        <ele>1377.937076</ele>
        <time>2026-04-25T17:32:54.378Z</time>
      </trkpt>
      <trkpt lat="45.10211" lon="2.71033">
        <ele>1379.470739</ele>
        <time>2026-04-25T17:33:11.658Z</time>
      </trkpt>
      <trkpt lat="45.10217" lon="2.7106">
        <ele>1382.758613</ele>
        <time>2026-04-25T17:33:49.764Z</time>
      </trkpt>
      <trkpt lat="45.10215" lon="2.71078">
        <ele>1384.857705</ele>
        <time>2026-04-25T17:34:14.777Z</time>
      </trkpt>
      <trkpt lat="45.10217" lon="2.71096">
        <ele>1386.913044</ele>
        <time>2026-04-25T17:34:39.880Z</time>
      </trkpt>
      <trkpt lat="45.10233" lon="2.71176">
        <ele>1400.489012</ele>
        <time>2026-04-25T17:36:47.229Z</time>
      </trkpt>
      <trkpt lat="45.10237" lon="2.71181">
        <ele>1401.831834</ele>
        <time>2026-04-25T17:36:58.883Z</time>
      </trkpt>
      <trkpt lat="45.10242" lon="2.71221">
        <ele>1408.90603</ele>
        <time>2026-04-25T17:38:01.471Z</time>
      </trkpt>
      <trkpt lat="45.10247" lon="2.71235">
        <ele>1411.693881</ele>
        <time>2026-04-25T17:38:27.618Z</time>
      </trkpt>
      <trkpt lat="45.10255" lon="2.71274">
        <ele>1418.869034</ele>
        <time>2026-04-25T17:39:35.463Z</time>
      </trkpt>
      <trkpt lat="45.10255" lon="2.71288">
        <ele>1421.393245</ele>
        <time>2026-04-25T17:39:59.584Z</time>
      </trkpt>
      <trkpt lat="45.10257" lon="2.71291">
        <ele>1422.191692</ele>
        <time>2026-04-25T17:40:07.365Z</time>
      </trkpt>
      <trkpt lat="45.10263" lon="2.7129">
        <ele>1423.645031</ele>
        <time>2026-04-25T17:40:21.361Z</time>
      </trkpt>
      <trkpt lat="45.10271" lon="2.71276">
        <ele>1426.932686</ele>
        <time>2026-04-25T17:40:53.536Z</time>
      </trkpt>
      <trkpt lat="45.10276" lon="2.71249">
        <ele>1431.898888</ele>
        <time>2026-04-25T17:41:42.174Z</time>
      </trkpt>
      <trkpt lat="45.1028" lon="2.71247">
        <ele>1432.867183</ele>
        <time>2026-04-25T17:41:52.037Z</time>
      </trkpt>
      <trkpt lat="45.10284" lon="2.7125">
        <ele>1434.08171</ele>
        <time>2026-04-25T17:42:04.123Z</time>
      </trkpt>
      <trkpt lat="45.10287" lon="2.7126">
        <ele>1436.171165</ele>
        <time>2026-04-25T17:42:23.756Z</time>
      </trkpt>
      <trkpt lat="45.1029" lon="2.71261">
        <ele>1436.918872</ele>
        <time>2026-04-25T17:42:30.968Z</time>
      </trkpt>
      <trkpt lat="45.10298" lon="2.7126">
        <ele>1439.102589</ele>
        <time>2026-04-25T17:42:51.334Z</time>
      </trkpt>
      <trkpt lat="45.10306" lon="2.71275">
        <ele>1442.797746</ele>
        <time>2026-04-25T17:43:26.423Z</time>
      </trkpt>
      <trkpt lat="45.10313" lon="2.71293">
        <ele>1446.614341</ele>
        <time>2026-04-25T17:44:02.362Z</time>
      </trkpt>
      <trkpt lat="45.10311" lon="2.71341">
        <ele>1455.867358</ele>
        <time>2026-04-25T17:45:27.974Z</time>
      </trkpt>
      <trkpt lat="45.1032" lon="2.714">
        <ele>1467.46072</ele>
        <time>2026-04-25T17:47:14.297Z</time>
      </trkpt>
      <trkpt lat="45.10328" lon="2.71424">
        <ele>1472.561575</ele>
        <time>2026-04-25T17:47:59.618Z</time>
      </trkpt>
      <trkpt lat="45.10341" lon="2.71442">
        <ele>1477.291886</ele>
        <time>2026-04-25T17:48:40.778Z</time>
      </trkpt>
      <trkpt lat="45.10341" lon="2.71449">
        <ele>1478.57549</ele>
        <time>2026-04-25T17:48:51.992Z</time>
      </trkpt>
      <trkpt lat="45.10312" lon="2.71513">
        <ele>1489.428663</ele>
        <time>2026-04-25T17:50:56.095Z</time>
      </trkpt>
      <trkpt lat="45.10308" lon="2.71525">
        <ele>1491.040436</ele>
        <time>2026-04-25T17:51:16.603Z</time>
      </trkpt>
      <trkpt lat="45.10307" lon="2.71545">
        <ele>1493.302161</ele>
        <time>2026-04-25T17:51:43.919Z</time>
      </trkpt>
      <trkpt lat="45.10294" lon="2.71564">
        <ele>1496.391272</ele>
        <time>2026-04-25T17:52:18.280Z</time>
      </trkpt>
      <trkpt lat="45.10289" lon="2.71585">
        <ele>1498.982816</ele>
        <time>2026-04-25T17:52:44.961Z</time>
      </trkpt>
      <trkpt lat="45.10287" lon="2.71598">
        <ele>1500.527489</ele>
        <time>2026-04-25T17:52:59.839Z</time>
      </trkpt>
      <trkpt lat="45.10291" lon="2.716">
        <ele>1501.158804</ele>
        <time>2026-04-25T17:53:05.762Z</time>
      </trkpt>
      <trkpt lat="45.103" lon="2.71621">
        <ele>1504.075463</ele>
        <time>2026-04-25T17:53:32.357Z</time>
      </trkpt>
      <trkpt lat="45.10307" lon="2.71644">
        <ele>1506.918294</ele>
        <time>2026-04-25T17:53:57.261Z</time>
      </trkpt>
      <trkpt lat="45.10304" lon="2.71647">
        <ele>1507.553983</ele>
        <time>2026-04-25T17:54:02.626Z</time>
      </trkpt>
      <trkpt lat="45.10307" lon="2.71644">
        <ele>1508.189672</ele>
        <time>2026-04-25T17:54:07.785Z</time>
      </trkpt>
      <trkpt lat="45.10317" lon="2.71633">
        <ele>1510.33475</ele>
        <time>2026-04-25T17:54:25.685Z</time>
      </trkpt>
      <trkpt lat="45.10368" lon="2.71616">
        <ele>1515.428453</ele>
        <time>2026-04-25T17:55:34.348Z</time>
      </trkpt>
      <trkpt lat="45.10379" lon="2.71612">
        <ele>1516.116339</ele>
        <time>2026-04-25T17:55:48.312Z</time>
      </trkpt>
      <trkpt lat="45.10391" lon="2.71604">
        <ele>1516.906047</ele>
        <time>2026-04-25T17:56:03.838Z</time>
      </trkpt>
      <trkpt lat="45.10399" lon="2.71592">
        <ele>1517.640228</ele>
        <time>2026-04-25T17:56:17.824Z</time>
      </trkpt>
      <trkpt lat="45.10429" lon="2.71511">
        <ele>1521.584629</ele>
        <time>2026-04-25T17:57:49.780Z</time>
      </trkpt>
      <trkpt lat="45.10438" lon="2.71473">
        <ele>1523.28007</ele>
        <time>2026-04-25T17:58:30.836Z</time>
      </trkpt>
      <trkpt lat="45.10442" lon="2.71443">
        <ele>1524.699129</ele>
        <time>2026-04-25T17:59:03.742Z</time>
      </trkpt>
      <trkpt lat="45.10435" lon="2.71376">
        <ele>1528.367833</ele>
        <time>2026-04-25T18:00:15.518Z</time>
      </trkpt>
      <trkpt lat="45.10438" lon="2.71367">
        <ele>1528.917632</ele>
        <time>2026-04-25T18:00:26.373Z</time>
      </trkpt>
      <trkpt lat="45.10436" lon="2.71357">
        <ele>1529.496437</ele>
        <time>2026-04-25T18:00:37.795Z</time>
      </trkpt>
      <trkpt lat="45.10443" lon="2.71331">
        <ele>1530.988887</ele>
        <time>2026-04-25T18:01:07.234Z</time>
      </trkpt>
      <trkpt lat="45.10481" lon="2.7132">
        <ele>1533.963496</ele>
        <time>2026-04-25T18:02:07.897Z</time>
      </trkpt>
      <trkpt lat="45.10501" lon="2.71309">
        <ele>1535.586098</ele>
        <time>2026-04-25T18:02:42.167Z</time>
      </trkpt>
      <trkpt lat="45.10507" lon="2.71297">
        <ele>1536.412094</ele>
        <time>2026-04-25T18:03:00.130Z</time>
      </trkpt>
      <trkpt lat="45.10528" lon="2.71271">
        <ele>1538.773592</ele>
        <time>2026-04-25T18:03:47.541Z</time>
      </trkpt>
      <trkpt lat="45.10548" lon="2.71213">
        <ele>1544.185067</ele>
        <time>2026-04-25T18:05:12.124Z</time>
      </trkpt>
      <trkpt lat="45.10566" lon="2.71203">
        <ele>1546.487507</ele>
        <time>2026-04-25T18:05:48.714Z</time>
      </trkpt>
      <trkpt lat="45.10572" lon="2.71188">
        <ele>1547.949494</ele>
        <time>2026-04-25T18:06:11.928Z</time>
      </trkpt>
      <trkpt lat="45.10579" lon="2.71184">
        <ele>1548.766653</ele>
        <time>2026-04-25T18:06:24.856Z</time>
      </trkpt>
      <trkpt lat="45.10584" lon="2.71172">
        <ele>1549.957641</ele>
        <time>2026-04-25T18:06:43.822Z</time>
      </trkpt>
      <trkpt lat="45.10588" lon="2.71147">
        <ele>1552.138128</ele>
        <time>2026-04-25T18:07:18.615Z</time>
      </trkpt>
      <trkpt lat="45.10592" lon="2.71139">
        <ele>1552.93876</ele>
        <time>2026-04-25T18:07:31.297Z</time>
      </trkpt>
      <trkpt lat="45.10601" lon="2.7113">
        <ele>1554.285086</ele>
        <time>2026-04-25T18:07:52.347Z</time>
      </trkpt>
      <trkpt lat="45.10604" lon="2.71124">
        <ele>1554.84398</ele>
        <time>2026-04-25T18:08:00.868Z</time>
      </trkpt>
      <trkpt lat="45.10636" lon="2.71104">
        <ele>1559.025845</ele>
        <time>2026-04-25T18:09:03.675Z</time>
      </trkpt>
      <trkpt lat="45.10648" lon="2.71091">
        <ele>1560.267955</ele>
        <time>2026-04-25T18:09:29.886Z</time>
      </trkpt>
      <trkpt lat="45.10655" lon="2.71077">
        <ele>1561.133329</ele>
        <time>2026-04-25T18:09:50.338Z</time>
      </trkpt>
      <trkpt lat="45.10675" lon="2.71061">
        <ele>1562.753136</ele>
        <time>2026-04-25T18:10:27.869Z</time>
      </trkpt>
      <trkpt lat="45.10689" lon="2.71019">
        <ele>1565.026874</ele>
        <time>2026-04-25T18:11:17.617Z</time>
      </trkpt>
      <trkpt lat="45.10689" lon="2.71008">
        <ele>1565.576441</ele>
        <time>2026-04-25T18:11:29.437Z</time>
      </trkpt>
      <trkpt lat="45.10692" lon="2.70993">
        <ele>1566.39419</ele>
        <time>2026-04-25T18:11:46.832Z</time>
      </trkpt>
      <trkpt lat="45.10687" lon="2.70984">
        <ele>1566.949792</ele>
        <time>2026-04-25T18:11:58.589Z</time>
      </trkpt>
      <trkpt lat="45.10684" lon="2.70959">
        <ele>1568.214163</ele>
        <time>2026-04-25T18:12:25.162Z</time>
      </trkpt>
      <trkpt lat="45.10672" lon="2.70943">
        <ele>1569.395935</ele>
        <time>2026-04-25T18:12:49.881Z</time>
      </trkpt>
      <trkpt lat="45.10669" lon="2.70932">
        <ele>1569.9804</ele>
        <time>2026-04-25T18:13:01.989Z</time>
      </trkpt>
      <trkpt lat="45.10688" lon="2.7089">
        <ele>1572.367971</ele>
        <time>2026-04-25T18:13:53.553Z</time>
      </trkpt>
      <trkpt lat="45.10698" lon="2.7086">
        <ele>1573.414086</ele>
        <time>2026-04-25T18:14:27.046Z</time>
      </trkpt>
      <trkpt lat="45.10698" lon="2.70853">
        <ele>1573.649164</ele>
        <time>2026-04-25T18:14:34.476Z</time>
      </trkpt>
      <trkpt lat="45.10688" lon="2.70819">
        <ele>1574.831259</ele>
        <time>2026-04-25T18:15:11.954Z</time>
      </trkpt>
      <trkpt lat="45.10695" lon="2.70796">
        <ele>1575.611186</ele>
        <time>2026-04-25T18:15:36.684Z</time>
      </trkpt>
      <trkpt lat="45.10688" lon="2.70744">
        <ele>1577.32197</ele>
        <time>2026-04-25T18:16:30.495Z</time>
      </trkpt>
      <trkpt lat="45.10674" lon="2.70698">
        <ele>1578.923909</ele>
        <time>2026-04-25T18:17:20.798Z</time>
      </trkpt>
      <trkpt lat="45.10667" lon="2.70682">
        <ele>1579.548445</ele>
        <time>2026-04-25T18:17:40.430Z</time>
      </trkpt>
      <trkpt lat="45.10658" lon="2.70676">
        <ele>1579.997241</ele>
        <time>2026-04-25T18:17:54.605Z</time>
      </trkpt>
      <trkpt lat="45.10636" lon="2.7065">
        <ele>1581.711932</ele>
        <time>2026-04-25T18:18:35.434Z</time>
      </trkpt>
      <trkpt lat="45.10627" lon="2.70646">
        <ele>1582.363996</ele>
        <time>2026-04-25T18:18:50.203Z</time>
      </trkpt>
      <trkpt lat="45.10612" lon="2.70631">
        <ele>1583.590399</ele>
        <time>2026-04-25T18:19:18.468Z</time>
      </trkpt>
      <trkpt lat="45.10611" lon="2.70619">
        <ele>1584.169237</ele>
        <time>2026-04-25T18:19:32.155Z</time>
      </trkpt>
      <trkpt lat="45.10607" lon="2.70615">
        <ele>1584.491415</ele>
        <time>2026-04-25T18:19:39.899Z</time>
      </trkpt>
      <trkpt lat="45.10604" lon="2.70607">
        <ele>1584.897863</ele>
        <time>2026-04-25T18:19:49.681Z</time>
      </trkpt>
      <trkpt lat="45.10596" lon="2.70593">
        <ele>1585.71622</ele>
        <time>2026-04-25T18:20:09.514Z</time>
      </trkpt>
      <trkpt lat="45.1059" lon="2.70588">
        <ele>1586.219589</ele>
        <time>2026-04-25T18:20:21.739Z</time>
      </trkpt>
      <trkpt lat="45.10587" lon="2.70579">
        <ele>1586.667379</ele>
        <time>2026-04-25T18:20:32.683Z</time>
      </trkpt>
      <trkpt lat="45.10584" lon="2.70544">
        <ele>1588.33874</ele>
        <time>2026-04-25T18:21:13.430Z</time>
      </trkpt>
      <trkpt lat="45.10589" lon="2.70508">
        <ele>1590.052395</ele>
        <time>2026-04-25T18:21:54.291Z</time>
      </trkpt>
      <trkpt lat="45.10585" lon="2.70473">
        <ele>1591.709765</ele>
        <time>2026-04-25T18:22:32.964Z</time>
      </trkpt>
      <trkpt lat="45.10587" lon="2.70442">
        <ele>1592.881732</ele>
        <time>2026-04-25T18:23:05.675Z</time>
      </trkpt>
      <trkpt lat="45.10582" lon="2.70418">
        <ele>1593.715624</ele>
        <time>2026-04-25T18:23:31.833Z</time>
      </trkpt>
      <trkpt lat="45.10567" lon="2.70377">
        <ele>1595.212768</ele>
        <time>2026-04-25T18:24:17.166Z</time>
      </trkpt>
      <trkpt lat="45.10553" lon="2.7036">
        <ele>1596.040773</ele>
        <time>2026-04-25T18:24:41.600Z</time>
      </trkpt>
      <trkpt lat="45.10542" lon="2.70337">
        <ele>1596.945135</ele>
        <time>2026-04-25T18:25:08.212Z</time>
      </trkpt>
      <trkpt lat="45.10538" lon="2.7032">
        <ele>1597.549988</ele>
        <time>2026-04-25T18:25:25.807Z</time>
      </trkpt>
      <trkpt lat="45.10541" lon="2.70283">
        <ele>1598.758736</ele>
        <time>2026-04-25T18:26:01.700Z</time>
      </trkpt>
      <trkpt lat="45.10549" lon="2.70257">
        <ele>1599.67069</ele>
        <time>2026-04-25T18:26:29.865Z</time>
      </trkpt>
      <trkpt lat="45.10548" lon="2.70218">
        <ele>1601.229603</ele>
        <time>2026-04-25T18:27:11.869Z</time>
      </trkpt>
      <trkpt lat="45.10554" lon="2.70198">
        <ele>1602.429814</ele>
        <time>2026-04-25T18:27:36.044Z</time>
      </trkpt>
      <trkpt lat="45.10554" lon="2.70163">
        <ele>1604.422748</ele>
        <time>2026-04-25T18:28:17.525Z</time>
      </trkpt>
      <trkpt lat="45.10552" lon="2.70152">
        <ele>1605.072295</ele>
        <time>2026-04-25T18:28:31.272Z</time>
      </trkpt>
      <trkpt lat="45.10554" lon="2.70121">
        <ele>1606.828401</ele>
        <time>2026-04-25T18:29:09.306Z</time>
      </trkpt>
      <trkpt lat="45.10537" lon="2.70056">
        <ele>1610.758388</ele>
        <time>2026-04-25T18:30:32.820Z</time>
      </trkpt>
      <trkpt lat="45.10535" lon="2.70039">
        <ele>1611.73215</ele>
        <time>2026-04-25T18:30:52.821Z</time>
      </trkpt>
      <trkpt lat="45.10534" lon="2.70034">
        <ele>1612.007872</ele>
        <time>2026-04-25T18:30:58.346Z</time>
      </trkpt>
      <trkpt lat="45.105" lon="2.69984">
        <ele>1614.892255</ele>
        <time>2026-04-25T18:32:13.530Z</time>
      </trkpt>
      <trkpt lat="45.10477" lon="2.69962">
        <ele>1614.68894</ele>
        <time>2026-04-25T18:32:50.138Z</time>
      </trkpt>
      <trkpt lat="45.10453" lon="2.6993">
        <ele>1614.439216</ele>
        <time>2026-04-25T18:33:33.180Z</time>
      </trkpt>
      <trkpt lat="45.10444" lon="2.69922">
        <ele>1614.364644</ele>
        <time>2026-04-25T18:33:46.476Z</time>
      </trkpt>
      <trkpt lat="45.10439" lon="2.69922">
        <ele>1614.327211</ele>
        <time>2026-04-25T18:33:53.185Z</time>
      </trkpt>
      <trkpt lat="45.1044" lon="2.69917">
        <ele>1614.302363</ele>
        <time>2026-04-25T18:33:57.727Z</time>
      </trkpt>
      <trkpt lat="45.10434" lon="2.69909">
        <ele>1614.242878</ele>
        <time>2026-04-25T18:34:08.480Z</time>
      </trkpt>
      <trkpt lat="45.10427" lon="2.699">
        <ele>1614.171808</ele>
        <time>2026-04-25T18:34:21.368Z</time>
      </trkpt>
      <trkpt lat="45.10411" lon="2.69838">
        <ele>1613.82446</ele>
        <time>2026-04-25T18:35:24.351Z</time>
      </trkpt>
      <trkpt lat="45.10387" lon="2.69767">
        <ele>1614.510692</ele>
        <time>2026-04-25T18:36:38.392Z</time>
      </trkpt>
      <trkpt lat="45.10372" lon="2.69702">
        <ele>1615.835043</ele>
        <time>2026-04-25T18:37:38.830Z</time>
      </trkpt>
      <trkpt lat="45.10351" lon="2.69627">
        <ele>1617.417695</ele>
        <time>2026-04-25T18:39:01.427Z</time>
      </trkpt>
      <trkpt lat="45.10346" lon="2.69596">
        <ele>1618.020609</ele>
        <time>2026-04-25T18:39:36.126Z</time>
      </trkpt>
      <trkpt lat="45.10343" lon="2.69548">
        <ele>1619.460332</ele>
        <time>2026-04-25T18:40:32.540Z</time>
      </trkpt>
      <trkpt lat="45.10339" lon="2.6954">
        <ele>1619.874413</ele>
        <time>2026-04-25T18:40:43.228Z</time>
      </trkpt>
      <trkpt lat="45.10335" lon="2.69533">
        <ele>1620.300371</ele>
        <time>2026-04-25T18:40:54.302Z</time>
      </trkpt>
      <trkpt lat="45.10271" lon="2.69462">
        <ele>1625.54821</ele>
        <time>2026-04-25T18:43:03.493Z</time>
      </trkpt>
      <trkpt lat="45.10265" lon="2.69449">
        <ele>1626.217835</ele>
        <time>2026-04-25T18:43:19.222Z</time>
      </trkpt>
      <trkpt lat="45.10261" lon="2.69428">
        <ele>1627.223137</ele>
        <time>2026-04-25T18:43:42.407Z</time>
      </trkpt>
      <trkpt lat="45.10253" lon="2.69412">
        <ele>1628.084546</ele>
        <time>2026-04-25T18:44:02.324Z</time>
      </trkpt>
      <trkpt lat="45.10241" lon="2.69373">
        <ele>1630.010393</ele>
        <time>2026-04-25T18:44:45.770Z</time>
      </trkpt>
      <trkpt lat="45.10237" lon="2.69368">
        <ele>1630.165079</ele>
        <time>2026-04-25T18:44:53.378Z</time>
      </trkpt>
      <trkpt lat="45.10237" lon="2.69364">
        <ele>1630.198172</ele>
        <time>2026-04-25T18:44:57.293Z</time>
      </trkpt>
      <trkpt lat="45.10243" lon="2.69291">
        <ele>1630.809018</ele>
        <time>2026-04-25T18:46:08.243Z</time>
      </trkpt>
      <trkpt lat="45.10242" lon="2.69283">
        <ele>1630.877079</ele>
        <time>2026-04-25T18:46:15.672Z</time>
      </trkpt>
      <trkpt lat="45.10248" lon="2.69269">
        <ele>1631.014291</ele>
        <time>2026-04-25T18:46:30.550Z</time>
      </trkpt>
      <trkpt lat="45.10251" lon="2.69241">
        <ele>1631.247109</ele>
        <time>2026-04-25T18:46:55.595Z</time>
      </trkpt>
      <trkpt lat="45.10268" lon="2.69204">
        <ele>1631.617788</ele>
        <time>2026-04-25T18:47:36.722Z</time>
      </trkpt>
      <trkpt lat="45.1027" lon="2.69188">
        <ele>1631.755271</ele>
        <time>2026-04-25T18:47:52.022Z</time>
      </trkpt>
      <trkpt lat="45.103" lon="2.69092">
        <ele>1631.226673</ele>
        <time>2026-04-25T18:49:25.952Z</time>
      </trkpt>
      <trkpt lat="45.10321" lon="2.69046">
        <ele>1630.040871</ele>
        <time>2026-04-25T18:50:17.529Z</time>
      </trkpt>
      <trkpt lat="45.10323" lon="2.69033">
        <ele>1629.760386</ele>
        <time>2026-04-25T18:50:29.875Z</time>
      </trkpt>
      <trkpt lat="45.10323" lon="2.69025">
        <ele>1629.571302</ele>
        <time>2026-04-25T18:50:38.191Z</time>
      </trkpt>
      <trkpt lat="45.10321" lon="2.69005">
        <ele>1629.140654</ele>
        <time>2026-04-25T18:50:57.103Z</time>
      </trkpt>
      <trkpt lat="45.10322" lon="2.68966">
        <ele>1628.310353</ele>
        <time>2026-04-25T18:51:33.433Z</time>
      </trkpt>
      <trkpt lat="45.10337" lon="2.68932">
        <ele>1627.430793</ele>
        <time>2026-04-25T18:52:12.372Z</time>
      </trkpt>
      <trkpt lat="45.10354" lon="2.68909">
        <ele>1626.702526</ele>
        <time>2026-04-25T18:52:43.777Z</time>
      </trkpt>
      <trkpt lat="45.10371" lon="2.68864">
        <ele>1623.796754</ele>
        <time>2026-04-25T18:53:33.915Z</time>
      </trkpt>
      <trkpt lat="45.10374" lon="2.68831">
        <ele>1621.940598</ele>
        <time>2026-04-25T18:54:06.336Z</time>
      </trkpt>
      <trkpt lat="45.10372" lon="2.68814">
        <ele>1620.93783</ele>
        <time>2026-04-25T18:54:24.115Z</time>
      </trkpt>
      <trkpt lat="45.10366" lon="2.68797">
        <ele>1619.91375</ele>
        <time>2026-04-25T18:54:42.332Z</time>
      </trkpt>
      <trkpt lat="45.10363" lon="2.68744">
        <ele>1616.894478</ele>
        <time>2026-04-25T18:55:37.576Z</time>
      </trkpt>
      <trkpt lat="45.10368" lon="2.68706">
        <ele>1614.695549</ele>
        <time>2026-04-25T18:56:19.668Z</time>
      </trkpt>
      <trkpt lat="45.10378" lon="2.68663">
        <ele>1612.039629</ele>
        <time>2026-04-25T18:57:09.298Z</time>
      </trkpt>
      <trkpt lat="45.10375" lon="2.68655">
        <ele>1611.323102</ele>
        <time>2026-04-25T18:57:19.386Z</time>
      </trkpt>
      <trkpt lat="45.10379" lon="2.68646">
        <ele>1610.541407</ele>
        <time>2026-04-25T18:57:30.446Z</time>
      </trkpt>
      <trkpt lat="45.10378" lon="2.68638">
        <ele>1609.911113</ele>
        <time>2026-04-25T18:57:39.266Z</time>
      </trkpt>
      <trkpt lat="45.10373" lon="2.68631">
        <ele>1609.178127</ele>
        <time>2026-04-25T18:57:49.579Z</time>
      </trkpt>
      <trkpt lat="45.10371" lon="2.68617">
        <ele>1608.132938</ele>
        <time>2026-04-25T18:58:04.070Z</time>
      </trkpt>
      <trkpt lat="45.10377" lon="2.68606">
        <ele>1607.108142</ele>
        <time>2026-04-25T18:58:18.288Z</time>
      </trkpt>
      <trkpt lat="45.10377" lon="2.68602">
        <ele>1606.739643</ele>
        <time>2026-04-25T18:58:23.418Z</time>
      </trkpt>
      <trkpt lat="45.1038" lon="2.686">
        <ele>1606.374462</ele>
        <time>2026-04-25T18:58:28.421Z</time>
      </trkpt>
      <trkpt lat="45.10375" lon="2.68594">
        <ele>1605.704967</ele>
        <time>2026-04-25T18:58:37.772Z</time>
      </trkpt>
      <trkpt lat="45.1037" lon="2.68575">
        <ele>1604.150492</ele>
        <time>2026-04-25T18:58:59.453Z</time>
      </trkpt>
      <trkpt lat="45.10372" lon="2.68569">
        <ele>1603.692452</ele>
        <time>2026-04-25T18:59:06.910Z</time>
      </trkpt>
      <trkpt lat="45.10372" lon="2.68568">
        <ele>1603.576953</ele>
        <time>2026-04-25T18:59:08.820Z</time>
      </trkpt>
      <trkpt lat="45.1038" lon="2.68563">
        <ele>1602.645653</ele>
        <time>2026-04-25T18:59:24.438Z</time>
      </trkpt>
      <trkpt lat="45.10372" lon="2.68561">
        <ele>1601.788177</ele>
        <time>2026-04-25T18:59:36.240Z</time>
      </trkpt>
      <trkpt lat="45.10372" lon="2.68552">
        <ele>1601.094498</ele>
        <time>2026-04-25T18:59:45.985Z</time>
      </trkpt>
      <trkpt lat="45.10383" lon="2.68543">
        <ele>1599.684281</ele>
        <time>2026-04-25T19:00:05.512Z</time>
      </trkpt>
      <trkpt lat="45.10399" lon="2.68515">
        <ele>1596.848564</ele>
        <time>2026-04-25T19:00:45.675Z</time>
      </trkpt>
      <trkpt lat="45.1041" lon="2.6847">
        <ele>1593.268182</ele>
        <time>2026-04-25T19:01:37.048Z</time>
      </trkpt>
      <trkpt lat="45.10415" lon="2.6846">
        <ele>1592.379229</ele>
        <time>2026-04-25T19:01:50.057Z</time>
      </trkpt>
      <trkpt lat="45.10429" lon="2.68419">
        <ele>1589.231798</ele>
        <time>2026-04-25T19:02:37.760Z</time>
      </trkpt>
      <trkpt lat="45.10446" lon="2.68388">
        <ele>1586.507286</ele>
        <time>2026-04-25T19:03:19.923Z</time>
      </trkpt>
      <trkpt lat="45.10457" lon="2.68377">
        <ele>1585.229278</ele>
        <time>2026-04-25T19:03:40.382Z</time>
      </trkpt>
      <trkpt lat="45.10464" lon="2.68365">
        <ele>1584.173999</ele>
        <time>2026-04-25T19:03:57.647Z</time>
      </trkpt>
      <trkpt lat="45.10469" lon="2.68356">
        <ele>1583.41721</ele>
        <time>2026-04-25T19:04:09.723Z</time>
      </trkpt>
      <trkpt lat="45.1047" lon="2.68349">
        <ele>1582.910045</ele>
        <time>2026-04-25T19:04:18.000Z</time>
      </trkpt>
      <trkpt lat="45.10477" lon="2.68342">
        <ele>1582.031124</ele>
        <time>2026-04-25T19:04:31.730Z</time>
      </trkpt>
      <trkpt lat="45.10481" lon="2.68333">
        <ele>1581.264734</ele>
        <time>2026-04-25T19:04:43.874Z</time>
      </trkpt>
      <trkpt lat="45.10497" lon="2.68314">
        <ele>1579.244124</ele>
        <time>2026-04-25T19:05:14.917Z</time>
      </trkpt>
      <trkpt lat="45.10499" lon="2.68306">
        <ele>1578.664944</ele>
        <time>2026-04-25T19:05:23.871Z</time>
      </trkpt>
      <trkpt lat="45.10504" lon="2.68294">
        <ele>1577.688956</ele>
        <time>2026-04-25T19:05:38.700Z</time>
      </trkpt>
      <trkpt lat="45.10546" lon="2.68255">
        <ele>1576.571779</ele>
        <time>2026-04-25T19:06:48.538Z</time>
      </trkpt>
      <trkpt lat="45.10564" lon="2.68228">
        <ele>1577.770681</ele>
        <time>2026-04-25T19:07:22.299Z</time>
      </trkpt>
      <trkpt lat="45.10568" lon="2.68222">
        <ele>1578.069617</ele>
        <time>2026-04-25T19:07:30.734Z</time>
      </trkpt>
      <trkpt lat="45.10584" lon="2.68202">
        <ele>1579.047755</ele>
        <time>2026-04-25T19:07:57.309Z</time>
      </trkpt>
      <trkpt lat="45.10603" lon="2.68187">
        <ele>1580.042433</ele>
        <time>2026-04-25T19:08:26.090Z</time>
      </trkpt>
      <trkpt lat="45.10614" lon="2.68169">
        <ele>1580.831761</ele>
        <time>2026-04-25T19:08:51.371Z</time>
      </trkpt>
      <trkpt lat="45.10627" lon="2.68158">
        <ele>1581.527607</ele>
        <time>2026-04-25T19:09:15.755Z</time>
      </trkpt>
      <trkpt lat="45.10638" lon="2.68145">
        <ele>1582.192635</ele>
        <time>2026-04-25T19:09:42.305Z</time>
      </trkpt>
      <trkpt lat="45.10664" lon="2.68086">
        <ele>1588.346677</ele>
        <time>2026-04-25T19:11:29.215Z</time>
      </trkpt>
      <trkpt lat="45.10666" lon="2.68074">
        <ele>1590.883723</ele>
        <time>2026-04-25T19:11:52.287Z</time>
      </trkpt>
      <trkpt lat="45.1067" lon="2.68048">
        <ele>1596.079419</ele>
        <time>2026-04-25T19:12:43.037Z</time>
      </trkpt>
      <trkpt lat="45.10676" lon="2.68035">
        <ele>1599.272024</ele>
        <time>2026-04-25T19:13:15.941Z</time>
      </trkpt>
      <trkpt lat="45.10688" lon="2.68016">
        <ele>1604.115815</ele>
        <time>2026-04-25T19:14:08.134Z</time>
      </trkpt>
      <trkpt lat="45.10696" lon="2.6801">
        <ele>1606.650649</ele>
        <time>2026-04-25T19:14:36.910Z</time>
      </trkpt>
      <trkpt lat="45.107" lon="2.67997">
        <ele>1609.460406</ele>
        <time>2026-04-25T19:15:09.218Z</time>
      </trkpt>
      <trkpt lat="45.10709" lon="2.67987">
        <ele>1612.686175</ele>
        <time>2026-04-25T19:15:47.472Z</time>
      </trkpt>
      <trkpt lat="45.10718" lon="2.67975">
        <ele>1616.114875</ele>
        <time>2026-04-25T19:16:29.063Z</time>
      </trkpt>
      <trkpt lat="45.10729" lon="2.67946">
        <ele>1622.533557</ele>
        <time>2026-04-25T19:17:49.958Z</time>
      </trkpt>
      <trkpt lat="45.10749" lon="2.67929">
        <ele>1629.103063</ele>
        <time>2026-04-25T19:19:15.627Z</time>
      </trkpt>
      <trkpt lat="45.10765" lon="2.67907">
        <ele>1635.581818</ele>
        <time>2026-04-25T19:20:38.480Z</time>
      </trkpt>
      <trkpt lat="45.10795" lon="2.67857">
        <ele>1651.153966</ele>
        <time>2026-04-25T19:23:32.637Z</time>
      </trkpt>
      <trkpt lat="45.10824" lon="2.67829">
        <ele>1662.981426</ele>
        <time>2026-04-25T19:25:46.080Z</time>
      </trkpt>
      <trkpt lat="45.10828" lon="2.67816">
        <ele>1666.452588</ele>
        <time>2026-04-25T19:26:25.067Z</time>
      </trkpt>
      <trkpt lat="45.10834" lon="2.6781">
        <ele>1668.858611</ele>
        <time>2026-04-25T19:26:51.943Z</time>
      </trkpt>
      <trkpt lat="45.10856" lon="2.67803">
        <ele>1676.352888</ele>
        <time>2026-04-25T19:28:14.492Z</time>
      </trkpt>
      <trkpt lat="45.10867" lon="2.67792">
        <ele>1680.757357</ele>
        <time>2026-04-25T19:29:01.446Z</time>
      </trkpt>
      <trkpt lat="45.10869" lon="2.67784">
        <ele>1682.753476</ele>
        <time>2026-04-25T19:29:22.416Z</time>
      </trkpt>
      <trkpt lat="45.1089" lon="2.67769">
        <ele>1690.765137</ele>
        <time>2026-04-25T19:30:42.366Z</time>
      </trkpt>
      <trkpt lat="45.10899" lon="2.67746">
        <ele>1694.841118</ele>
        <time>2026-04-25T19:31:40.862Z</time>
      </trkpt>
      <trkpt lat="45.10911" lon="2.67738">
        <ele>1695.78247</ele>
        <time>2026-04-25T19:32:19.461Z</time>
      </trkpt>
      <trkpt lat="45.10909" lon="2.67725">
        <ele>1696.468436</ele>
        <time>2026-04-25T19:32:45.337Z</time>
      </trkpt>
      <trkpt lat="45.10916" lon="2.6772">
        <ele>1697.003828</ele>
        <time>2026-04-25T19:33:04.165Z</time>
      </trkpt>
      <trkpt lat="45.10923" lon="2.67691">
        <ele>1698.598496</ele>
        <time>2026-04-25T19:33:53.414Z</time>
      </trkpt>
      <trkpt lat="45.10932" lon="2.67624">
        <ele>1702.051922</ele>
        <time>2026-04-25T19:35:09.332Z</time>
      </trkpt>
      <trkpt lat="45.10936" lon="2.676">
        <ele>1703.337586</ele>
        <time>2026-04-25T19:35:32.346Z</time>
      </trkpt>
      <trkpt lat="45.10937" lon="2.67587">
        <ele>1704.003312</ele>
        <time>2026-04-25T19:35:41.974Z</time>
      </trkpt>
      <trkpt lat="45.10952" lon="2.67541">
        <ele>1706.57979</ele>
        <time>2026-04-25T19:36:22.584Z</time>
      </trkpt>
      <trkpt lat="45.10949" lon="2.6753">
        <ele>1707.196459</ele>
        <time>2026-04-25T19:36:33.054Z</time>
      </trkpt>
      <trkpt lat="45.10937" lon="2.67519">
        <ele>1704.100499</ele>
        <time>2026-04-25T19:36:50.658Z</time>
      </trkpt>
      <trkpt lat="45.10937" lon="2.67512">
        <ele>1702.816865</ele>
        <time>2026-04-25T19:36:57.626Z</time>
      </trkpt>
      <trkpt lat="45.10984" lon="2.67493">
        <ele>1691.079594</ele>
        <time>2026-04-25T19:38:08.814Z</time>
      </trkpt>
      <trkpt lat="45.10995" lon="2.67479">
        <ele>1687.534662</ele>
        <time>2026-04-25T19:38:33.154Z</time>
      </trkpt>
      <trkpt lat="45.11012" lon="2.6747">
        <ele>1683.056729</ele>
        <time>2026-04-25T19:39:04.965Z</time>
      </trkpt>
      <trkpt lat="45.11024" lon="2.67459">
        <ele>1679.604177</ele>
        <time>2026-04-25T19:39:30.484Z</time>
      </trkpt>
      <trkpt lat="45.11037" lon="2.67451">
        <ele>1676.237971</ele>
        <time>2026-04-25T19:39:56.386Z</time>
      </trkpt>
      <trkpt lat="45.11044" lon="2.67452">
        <ele>1674.541283</ele>
        <time>2026-04-25T19:40:09.448Z</time>
      </trkpt>
      <trkpt lat="45.11047" lon="2.67456">
        <ele>1673.366541</ele>
        <time>2026-04-25T19:40:18.480Z</time>
      </trkpt>
      <trkpt lat="45.1106" lon="2.67456">
        <ele>1670.287702</ele>
        <time>2026-04-25T19:40:42.945Z</time>
      </trkpt>
      <trkpt lat="45.11062" lon="2.6744">
        <ele>1667.495108</ele>
        <time>2026-04-25T19:41:05.985Z</time>
      </trkpt>
      <trkpt lat="45.11067" lon="2.67429">
        <ele>1665.374371</ele>
        <time>2026-04-25T19:41:24.083Z</time>
      </trkpt>
      <trkpt lat="45.1108" lon="2.67419">
        <ele>1661.227912</ele>
        <time>2026-04-25T19:41:56.552Z</time>
      </trkpt>
      <trkpt lat="45.11115" lon="2.67381">
        <ele>1648.271923</ele>
        <time>2026-04-25T19:43:27.902Z</time>
      </trkpt>
      <trkpt lat="45.11132" lon="2.67372">
        <ele>1643.060292</ele>
        <time>2026-04-25T19:44:03.548Z</time>
      </trkpt>
      <trkpt lat="45.11143" lon="2.67359">
        <ele>1638.909437</ele>
        <time>2026-04-25T19:44:31.108Z</time>
      </trkpt>
      <trkpt lat="45.1115" lon="2.67343">
        <ele>1634.968574</ele>
        <time>2026-04-25T19:44:56.897Z</time>
      </trkpt>
      <trkpt lat="45.11157" lon="2.67334">
        <ele>1632.394686</ele>
        <time>2026-04-25T19:45:13.617Z</time>
      </trkpt>
      <trkpt lat="45.11169" lon="2.67329">
        <ele>1628.511531</ele>
        <time>2026-04-25T19:45:37.780Z</time>
      </trkpt>
      <trkpt lat="45.11206" lon="2.67326">
        <ele>1617.611044</ele>
        <time>2026-04-25T19:46:42.398Z</time>
      </trkpt>
      <trkpt lat="45.11214" lon="2.67323">
        <ele>1615.412878</ele>
        <time>2026-04-25T19:46:54.654Z</time>
      </trkpt>
      <trkpt lat="45.11227" lon="2.67309">
        <ele>1610.713816</ele>
        <time>2026-04-25T19:47:20.700Z</time>
      </trkpt>
      <trkpt lat="45.11235" lon="2.67305">
        <ele>1609.13023</ele>
        <time>2026-04-25T19:47:34.614Z</time>
      </trkpt>
      <trkpt lat="45.11242" lon="2.67309">
        <ele>1607.874812</ele>
        <time>2026-04-25T19:47:45.502Z</time>
      </trkpt>
      <trkpt lat="45.11249" lon="2.67309">
        <ele>1606.669292</ele>
        <time>2026-04-25T19:47:55.515Z</time>
      </trkpt>
      <trkpt lat="45.11256" lon="2.67302">
        <ele>1605.092153</ele>
        <time>2026-04-25T19:48:08.210Z</time>
      </trkpt>
      <trkpt lat="45.11266" lon="2.67279">
        <ele>1601.645604</ele>
        <time>2026-04-25T19:48:34.084Z</time>
      </trkpt>
      <trkpt lat="45.11293" lon="2.67249">
        <ele>1595.673991</ele>
        <time>2026-04-25T19:49:18.715Z</time>
      </trkpt>
      <trkpt lat="45.11319" lon="2.67238">
        <ele>1590.91192</ele>
        <time>2026-04-25T19:49:55.343Z</time>
      </trkpt>
      <trkpt lat="45.11335" lon="2.67224">
        <ele>1587.545639</ele>
        <time>2026-04-25T19:50:21.824Z</time>
      </trkpt>
      <trkpt lat="45.11385" lon="2.67194">
        <ele>1578.490965</ele>
        <time>2026-04-25T19:51:32.891Z</time>
      </trkpt>
      <trkpt lat="45.11406" lon="2.67181">
        <ele>1576.61932</ele>
        <time>2026-04-25T19:52:01.539Z</time>
      </trkpt>
      <trkpt lat="45.11411" lon="2.67181">
        <ele>1576.218142</ele>
        <time>2026-04-25T19:52:07.366Z</time>
      </trkpt>
      <trkpt lat="45.1141" lon="2.67175">
        <ele>1575.822234</ele>
        <time>2026-04-25T19:52:13.351Z</time>
      </trkpt>
      <trkpt lat="45.11406" lon="2.6717">
        <ele>1575.401585</ele>
        <time>2026-04-25T19:52:19.685Z</time>
      </trkpt>
      <trkpt lat="45.11389" lon="2.67166">
        <ele>1573.987841</ele>
        <time>2026-04-25T19:52:40.226Z</time>
      </trkpt>
      <trkpt lat="45.1124" lon="2.67181">
        <ele>1563.248514</ele>
        <time>2026-04-25T19:55:25.999Z</time>
      </trkpt>
      <trkpt lat="45.1124" lon="2.6718">
        <ele>1563.230907</ele>
        <time>2026-04-25T19:55:26.518Z</time>
      </trkpt>
      <trkpt lat="45.11199" lon="2.67172">
        <ele>1561.785029</ele>
        <time>2026-04-25T19:56:10.991Z</time>
      </trkpt>
      <trkpt lat="45.11105" lon="2.67176">
        <ele>1558.502437</ele>
        <time>2026-04-25T19:57:49.972Z</time>
      </trkpt>
      <trkpt lat="45.11081" lon="2.67181">
        <ele>1557.572224</ele>
        <time>2026-04-25T19:58:15.259Z</time>
      </trkpt>
      <trkpt lat="45.11049" lon="2.67196">
        <ele>1556.114603</ele>
        <time>2026-04-25T19:58:51.336Z</time>
      </trkpt>
      <trkpt lat="45.11032" lon="2.67197">
        <ele>1555.360178</ele>
        <time>2026-04-25T19:59:10.388Z</time>
      </trkpt>
      <trkpt lat="45.11009" lon="2.67186">
        <ele>1554.326191</ele>
        <time>2026-04-25T19:59:36.554Z</time>
      </trkpt>
      <trkpt lat="45.10996" lon="2.67182">
        <ele>1553.722097</ele>
        <time>2026-04-25T19:59:51.857Z</time>
      </trkpt>
      <trkpt lat="45.10931" lon="2.67185">
        <ele>1550.905765</ele>
        <time>2026-04-25T20:01:04.542Z</time>
      </trkpt>
      <trkpt lat="45.10905" lon="2.6717">
        <ele>1550.365487</ele>
        <time>2026-04-25T20:01:35.674Z</time>
      </trkpt>
      <trkpt lat="45.10855" lon="2.67156">
        <ele>1550.808712</ele>
        <time>2026-04-25T20:02:29.916Z</time>
      </trkpt>
      <trkpt lat="45.10798" lon="2.67132">
        <ele>1551.319815</ele>
        <time>2026-04-25T20:03:35.914Z</time>
      </trkpt>
      <trkpt lat="45.10788" lon="2.67131">
        <ele>1551.407791</ele>
        <time>2026-04-25T20:03:48.161Z</time>
      </trkpt>
      <trkpt lat="45.10752" lon="2.67137">
        <ele>1551.720901</ele>
        <time>2026-04-25T20:04:30.901Z</time>
      </trkpt>
      <trkpt lat="45.10744" lon="2.67135">
        <ele>1551.790276</ele>
        <time>2026-04-25T20:04:40.207Z</time>
      </trkpt>
      <trkpt lat="45.10733" lon="2.67129">
        <ele>1551.711153</ele>
        <time>2026-04-25T20:04:54.187Z</time>
      </trkpt>
      <trkpt lat="45.10704" lon="2.67094">
        <ele>1551.285589</ele>
        <time>2026-04-25T20:05:34.619Z</time>
      </trkpt>
      <trkpt lat="45.10688" lon="2.67076">
        <ele>1551.051736</ele>
        <time>2026-04-25T20:05:56.013Z</time>
      </trkpt>
      <trkpt lat="45.10672" lon="2.67063">
        <ele>1550.835851</ele>
        <time>2026-04-25T20:06:15.349Z</time>
      </trkpt>
      <trkpt lat="45.10665" lon="2.67049">
        <ele>1550.703226</ele>
        <time>2026-04-25T20:06:27.114Z</time>
      </trkpt>
      <trkpt lat="45.10638" lon="2.67017">
        <ele>1550.304935</ele>
        <time>2026-04-25T20:07:03.498Z</time>
      </trkpt>
      <trkpt lat="45.10614" lon="2.66966">
        <ele>1549.813513</ele>
        <time>2026-04-25T20:07:51.565Z</time>
      </trkpt>
      <trkpt lat="45.10611" lon="2.66963">
        <ele>1549.710531</ele>
        <time>2026-04-25T20:07:55.924Z</time>
      </trkpt>
      <trkpt lat="45.10608" lon="2.66959">
        <ele>1549.33845</ele>
        <time>2026-04-25T20:08:00.683Z</time>
      </trkpt>
      <trkpt lat="45.10555" lon="2.66915">
        <ele>1543.858434</ele>
        <time>2026-04-25T20:09:12.861Z</time>
      </trkpt>
      <trkpt lat="45.10532" lon="2.66877">
        <ele>1540.649627</ele>
        <time>2026-04-25T20:09:55.211Z</time>
      </trkpt>
      <trkpt lat="45.10497" lon="2.66831">
        <ele>1536.35746</ele>
        <time>2026-04-25T20:10:53.022Z</time>
      </trkpt>
      <trkpt lat="45.10494" lon="2.66838">
        <ele>1535.84732</ele>
        <time>2026-04-25T20:11:01.502Z</time>
      </trkpt>
      <trkpt lat="45.10465" lon="2.66723">
        <ele>1528.513005</ele>
        <time>2026-04-25T20:12:45.114Z</time>
      </trkpt>
      <trkpt lat="45.10461" lon="2.6668">
        <ele>1525.969118</ele>
        <time>2026-04-25T20:13:19.808Z</time>
      </trkpt>
      <trkpt lat="45.1046" lon="2.66656">
        <ele>1524.598805</ele>
        <time>2026-04-25T20:13:38.483Z</time>
      </trkpt>
      <trkpt lat="45.10437" lon="2.66634">
        <ele>1522.283281</ele>
        <time>2026-04-25T20:14:10.240Z</time>
      </trkpt>
      <trkpt lat="45.10417" lon="2.6657">
        <ele>1518.262352</ele>
        <time>2026-04-25T20:15:07.334Z</time>
      </trkpt>
      <trkpt lat="45.10406" lon="2.66511">
        <ele>1515.081685</ele>
        <time>2026-04-25T20:15:58.803Z</time>
      </trkpt>
      <trkpt lat="45.10409" lon="2.66496">
        <ele>1514.270891</ele>
        <time>2026-04-25T20:16:12.203Z</time>
      </trkpt>
      <trkpt lat="45.10408" lon="2.66463">
        <ele>1512.565391</ele>
        <time>2026-04-25T20:16:40.235Z</time>
      </trkpt>
      <trkpt lat="45.1041" lon="2.66462">
        <ele>1512.359463</ele>
        <time>2026-04-25T20:16:43.667Z</time>
      </trkpt>
      <trkpt lat="45.10413" lon="2.66448">
        <ele>1511.643899</ele>
        <time>2026-04-25T20:16:55.372Z</time>
      </trkpt>
      <trkpt lat="45.10408" lon="2.66442">
        <ele>1511.188126</ele>
        <time>2026-04-25T20:17:02.831Z</time>
      </trkpt>
      <trkpt lat="45.10406" lon="2.66418">
        <ele>1509.880045</ele>
        <time>2026-04-25T20:17:24.021Z</time>
      </trkpt>
      <trkpt lat="45.10402" lon="2.66406">
        <ele>1509.217298</ele>
        <time>2026-04-25T20:17:34.468Z</time>
      </trkpt>
      <trkpt lat="45.10411" lon="2.66388">
        <ele>1508.004736</ele>
        <time>2026-04-25T20:17:53.058Z</time>
      </trkpt>
      <trkpt lat="45.10407" lon="2.66354">
        <ele>1506.229278</ele>
        <time>2026-04-25T20:18:19.251Z</time>
      </trkpt>
      <trkpt lat="45.10422" lon="2.66283">
        <ele>1506.161117</ele>
        <time>2026-04-25T20:19:12.399Z</time>
      </trkpt>
      <trkpt lat="45.10421" lon="2.66274">
        <ele>1506.269551</ele>
        <time>2026-04-25T20:19:19.489Z</time>
      </trkpt>
      <trkpt lat="45.10434" lon="2.66238">
        <ele>1506.745225</ele>
        <time>2026-04-25T20:19:51.336Z</time>
      </trkpt>
      <trkpt lat="45.10438" lon="2.66237">
        <ele>1506.818471</ele>
        <time>2026-04-25T20:19:56.432Z</time>
      </trkpt>
      <trkpt lat="45.10441" lon="2.66227">
        <ele>1506.952242</ele>
        <time>2026-04-25T20:20:05.614Z</time>
      </trkpt>
      <trkpt lat="45.10436" lon="2.66215">
        <ele>1507.113824</ele>
        <time>2026-04-25T20:20:16.791Z</time>
      </trkpt>
      <trkpt lat="45.10438" lon="2.66204">
        <ele>1507.252418</ele>
        <time>2026-04-25T20:20:26.351Z</time>
      </trkpt>
      <trkpt lat="45.10435" lon="2.66173">
        <ele>1507.624881</ele>
        <time>2026-04-25T20:20:52.175Z</time>
      </trkpt>
      <trkpt lat="45.10432" lon="2.66173">
        <ele>1507.663832</ele>
        <time>2026-04-25T20:20:54.829Z</time>
      </trkpt>
      <trkpt lat="45.10421" lon="2.66155">
        <ele>1507.949873</ele>
        <time>2026-04-25T20:21:14.248Z</time>
      </trkpt>
      <trkpt lat="45.10414" lon="2.66137">
        <ele>1508.192354</ele>
        <time>2026-04-25T20:21:30.647Z</time>
      </trkpt>
      <trkpt lat="45.10399" lon="2.66114">
        <ele>1508.347607</ele>
        <time>2026-04-25T20:21:54.089Z</time>
      </trkpt>
      <trkpt lat="45.10385" lon="2.66064">
        <ele>1507.153851</ele>
        <time>2026-04-25T20:22:32.841Z</time>
      </trkpt>
      <trkpt lat="45.10374" lon="2.66041">
        <ele>1506.5319</ele>
        <time>2026-04-25T20:22:54.368Z</time>
      </trkpt>
      <trkpt lat="45.10354" lon="2.6601">
        <ele>1505.584281</ele>
        <time>2026-04-25T20:23:27.889Z</time>
      </trkpt>
      <trkpt lat="45.10343" lon="2.65981">
        <ele>1504.86831</ele>
        <time>2026-04-25T20:23:53.202Z</time>
      </trkpt>
      <trkpt lat="45.10296" lon="2.65934">
        <ele>1503.050505</ele>
        <time>2026-04-25T20:24:57.290Z</time>
      </trkpt>
      <trkpt lat="45.10291" lon="2.6592">
        <ele>1502.619571</ele>
        <time>2026-04-25T20:25:09.274Z</time>
      </trkpt>
      <trkpt lat="45.10289" lon="2.65906">
        <ele>1502.101087</ele>
        <time>2026-04-25T20:25:19.990Z</time>
      </trkpt>
      <trkpt lat="45.10282" lon="2.65883">
        <ele>1501.180009</ele>
        <time>2026-04-25T20:25:38.774Z</time>
      </trkpt>
      <trkpt lat="45.1026" lon="2.65816">
        <ele>1498.443739</ele>
        <time>2026-04-25T20:26:31.878Z</time>
      </trkpt>
      <trkpt lat="45.10239" lon="2.65771">
        <ele>1496.417068</ele>
        <time>2026-04-25T20:27:12.239Z</time>
      </trkpt>
      <trkpt lat="45.10232" lon="2.65762">
        <ele>1495.939676</ele>
        <time>2026-04-25T20:27:22.122Z</time>
      </trkpt>
      <trkpt lat="45.10222" lon="2.65733">
        <ele>1494.733037</ele>
        <time>2026-04-25T20:27:48.030Z</time>
      </trkpt>
      <trkpt lat="45.10206" lon="2.65719">
        <ele>1493.752212</ele>
        <time>2026-04-25T20:28:09.935Z</time>
      </trkpt>
      <trkpt lat="45.10192" lon="2.65699">
        <ele>1490.019162</ele>
        <time>2026-04-25T20:28:34.469Z</time>
      </trkpt>
      <trkpt lat="45.10173" lon="2.65692">
        <ele>1484.962335</ele>
        <time>2026-04-25T20:28:59.290Z</time>
      </trkpt>
      <trkpt lat="45.10165" lon="2.65694">
        <ele>1482.816257</ele>
        <time>2026-04-25T20:29:10.402Z</time>
      </trkpt>
      <trkpt lat="45.10158" lon="2.65701">
        <ele>1480.571891</ele>
        <time>2026-04-25T20:29:22.836Z</time>
      </trkpt>
      <trkpt lat="45.10152" lon="2.65714">
        <ele>1477.612871</ele>
        <time>2026-04-25T20:29:40.025Z</time>
      </trkpt>
      <trkpt lat="45.10145" lon="2.65718">
        <ele>1475.837265</ele>
        <time>2026-04-25T20:29:50.916Z</time>
      </trkpt>
      <trkpt lat="45.10121" lon="2.65721">
        <ele>1469.458688</ele>
        <time>2026-04-25T20:30:33.260Z</time>
      </trkpt>
      <trkpt lat="45.10114" lon="2.65727">
        <ele>1467.249651</ele>
        <time>2026-04-25T20:30:49.233Z</time>
      </trkpt>
      <trkpt lat="45.10096" lon="2.65754">
        <ele>1460.230756</ele>
        <time>2026-04-25T20:31:44.260Z</time>
      </trkpt>
      <trkpt lat="45.10073" lon="2.65771">
        <ele>1453.619816</ele>
        <time>2026-04-25T20:32:38.227Z</time>
      </trkpt>
      <trkpt lat="45.10066" lon="2.65786">
        <ele>1450.268886</ele>
        <time>2026-04-25T20:33:05.704Z</time>
      </trkpt>
      <trkpt lat="45.10063" lon="2.65802">
        <ele>1447.234749</ele>
        <time>2026-04-25T20:33:30.763Z</time>
      </trkpt>
      <trkpt lat="45.10049" lon="2.65816">
        <ele>1442.060578</ele>
        <time>2026-04-25T20:34:07.956Z</time>
      </trkpt>
      <trkpt lat="45.10045" lon="2.65826">
        <ele>1439.601997</ele>
        <time>2026-04-25T20:34:24.994Z</time>
      </trkpt>
      <trkpt lat="45.10035" lon="2.65836">
        <ele>1435.792681</ele>
        <time>2026-04-25T20:34:51.015Z</time>
      </trkpt>
      <trkpt lat="45.10022" lon="2.65858">
        <ele>1429.61438</ele>
        <time>2026-04-25T20:35:32.513Z</time>
      </trkpt>
      <trkpt lat="45.10021" lon="2.65872">
        <ele>1426.394764</ele>
        <time>2026-04-25T20:35:53.579Z</time>
      </trkpt>
      <trkpt lat="45.10018" lon="2.65878">
        <ele>1424.700761</ele>
        <time>2026-04-25T20:36:04.636Z</time>
      </trkpt>
      <trkpt lat="45.10011" lon="2.65881">
        <ele>1422.582444</ele>
        <time>2026-04-25T20:36:18.211Z</time>
      </trkpt>
      <trkpt lat="45.09995" lon="2.65873">
        <ele>1417.431764</ele>
        <time>2026-04-25T20:36:50.501Z</time>
      </trkpt>
      <trkpt lat="45.09978" lon="2.6589">
        <ele>1411.063656</ele>
        <time>2026-04-25T20:37:28.794Z</time>
      </trkpt>
      <trkpt lat="45.09963" lon="2.65895">
        <ele>1406.248848</ele>
        <time>2026-04-25T20:37:56.807Z</time>
      </trkpt>
      <trkpt lat="45.09916" lon="2.65901">
        <ele>1391.595293</ele>
        <time>2026-04-25T20:39:17.959Z</time>
      </trkpt>
      <trkpt lat="45.09901" lon="2.65908">
        <ele>1387.482094</ele>
        <time>2026-04-25T20:39:43.074Z</time>
      </trkpt>
      <trkpt lat="45.09887" lon="2.65922">
        <ele>1382.918491</ele>
        <time>2026-04-25T20:40:11.639Z</time>
      </trkpt>
      <trkpt lat="45.09823" lon="2.65966">
        <ele>1363.981254</ele>
        <time>2026-04-25T20:42:13.170Z</time>
      </trkpt>
      <trkpt lat="45.09801" lon="2.65995">
        <ele>1356.166621</ele>
        <time>2026-04-25T20:43:05.190Z</time>
      </trkpt>
      <trkpt lat="45.09779" lon="2.66037">
        <ele>1346.31892</ele>
        <time>2026-04-25T20:44:12.120Z</time>
      </trkpt>
      <trkpt lat="45.0976" lon="2.66061">
        <ele>1339.658497</ele>
        <time>2026-04-25T20:44:58.699Z</time>
      </trkpt>
      <trkpt lat="45.09696" lon="2.66107">
        <ele>1321.594128</ele>
        <time>2026-04-25T20:47:05.266Z</time>
      </trkpt>
      <trkpt lat="45.09649" lon="2.66152">
        <ele>1307.264898</ele>
        <time>2026-04-25T20:48:38.827Z</time>
      </trkpt>
      <trkpt lat="45.09607" lon="2.66187">
        <ele>1295.292323</ele>
        <time>2026-04-25T20:49:55.375Z</time>
      </trkpt>
      <trkpt lat="45.09606" lon="2.66192">
        <ele>1294.495953</ele>
        <time>2026-04-25T20:50:01.017Z</time>
      </trkpt>
      <trkpt lat="45.09609" lon="2.66198">
        <ele>1293.468353</ele>
        <time>2026-04-25T20:50:08.206Z</time>
      </trkpt>
      <trkpt lat="45.09622" lon="2.66213">
        <ele>1289.676678</ele>
        <time>2026-04-25T20:50:34.582Z</time>
      </trkpt>
      <trkpt lat="45.09625" lon="2.66226">
        <ele>1287.637795</ele>
        <time>2026-04-25T20:50:48.716Z</time>
      </trkpt>
      <trkpt lat="45.09622" lon="2.6624">
        <ele>1285.490019</ele>
        <time>2026-04-25T20:51:03.604Z</time>
      </trkpt>
      <trkpt lat="45.09612" lon="2.66252">
        <ele>1282.545757</ele>
        <time>2026-04-25T20:51:23.930Z</time>
      </trkpt>
      <trkpt lat="45.09593" lon="2.66266">
        <ele>1277.779083</ele>
        <time>2026-04-25T20:51:57.140Z</time>
      </trkpt>
      <trkpt lat="45.09559" lon="2.66302">
        <ele>1268.645712</ele>
        <time>2026-04-25T20:53:01.254Z</time>
      </trkpt>
      <trkpt lat="45.09521" lon="2.66333">
        <ele>1259.140966</ele>
        <time>2026-04-25T20:54:09.109Z</time>
      </trkpt>
      <trkpt lat="45.09495" lon="2.66359">
        <ele>1252.146107</ele>
        <time>2026-04-25T20:54:59.209Z</time>
      </trkpt>
      <trkpt lat="45.09476" lon="2.66367">
        <ele>1247.907674</ele>
        <time>2026-04-25T20:55:29.550Z</time>
      </trkpt>
      <trkpt lat="45.09461" lon="2.66365">
        <ele>1244.741305</ele>
        <time>2026-04-25T20:55:52.139Z</time>
      </trkpt>
      <trkpt lat="45.09441" lon="2.66351">
        <ele>1239.860416</ele>
        <time>2026-04-25T20:56:26.933Z</time>
      </trkpt>
      <trkpt lat="45.09417" lon="2.66323">
        <ele>1233.011785</ele>
        <time>2026-04-25T20:57:15.181Z</time>
      </trkpt>
      <trkpt lat="45.09413" lon="2.66322">
        <ele>1232.168961</ele>
        <time>2026-04-25T20:57:21.157Z</time>
      </trkpt>
      <trkpt lat="45.09408" lon="2.66325">
        <ele>1230.901173</ele>
        <time>2026-04-25T20:57:30.148Z</time>
      </trkpt>
      <trkpt lat="45.09404" lon="2.66336">
        <ele>1229.14727</ele>
        <time>2026-04-25T20:57:42.509Z</time>
      </trkpt>
      <trkpt lat="45.094" lon="2.66369">
        <ele>1223.909267</ele>
        <time>2026-04-25T20:58:19.817Z</time>
      </trkpt>
      <trkpt lat="45.09401" lon="2.66387">
        <ele>1221.057206</ele>
        <time>2026-04-25T20:58:40.012Z</time>
      </trkpt>
      <trkpt lat="45.09409" lon="2.66412">
        <ele>1217.221978</ele>
        <time>2026-04-25T20:59:09.522Z</time>
      </trkpt>
      <trkpt lat="45.09411" lon="2.66422">
        <ele>1215.807776</ele>
        <time>2026-04-25T20:59:20.685Z</time>
      </trkpt>
      <trkpt lat="45.09409" lon="2.66436">
        <ele>1213.945517</ele>
        <time>2026-04-25T20:59:35.459Z</time>
      </trkpt>
      <trkpt lat="45.09405" lon="2.66443">
        <ele>1212.781192</ele>
        <time>2026-04-25T20:59:44.402Z</time>
      </trkpt>
      <trkpt lat="45.09391" lon="2.6645">
        <ele>1210.003154</ele>
        <time>2026-04-25T21:00:05.941Z</time>
      </trkpt>
      <trkpt lat="45.09369" lon="2.6647">
        <ele>1205.001928</ele>
        <time>2026-04-25T21:00:44.106Z</time>
      </trkpt>
      <trkpt lat="45.09353" lon="2.66476">
        <ele>1201.899769</ele>
        <time>2026-04-25T21:01:07.448Z</time>
      </trkpt>
      <trkpt lat="45.09339" lon="2.66477">
        <ele>1199.135189</ele>
        <time>2026-04-25T21:01:28.053Z</time>
      </trkpt>
      <trkpt lat="45.09355" lon="2.66544">
        <ele>1189.693487</ele>
        <time>2026-04-25T21:02:37.242Z</time>
      </trkpt>
      <trkpt lat="45.09387" lon="2.66603">
        <ele>1180.500182</ele>
        <time>2026-04-25T21:03:46.491Z</time>
      </trkpt>
      <trkpt lat="45.0939" lon="2.66614">
        <ele>1179.175507</ele>
        <time>2026-04-25T21:03:56.976Z</time>
      </trkpt>
      <trkpt lat="45.0939" lon="2.66624">
        <ele>1177.970686</ele>
        <time>2026-04-25T21:04:06.407Z</time>
      </trkpt>
      <trkpt lat="45.09385" lon="2.66631">
        <ele>1176.94367</ele>
        <time>2026-04-25T21:04:14.448Z</time>
      </trkpt>
      <trkpt lat="45.09325" lon="2.66621">
        <ele>1166.96269</ele>
        <time>2026-04-25T21:05:33.264Z</time>
      </trkpt>
      <trkpt lat="45.09306" lon="2.66613">
        <ele>1163.686018</ele>
        <time>2026-04-25T21:05:59.533Z</time>
      </trkpt>
      <trkpt lat="45.09271" lon="2.66605">
        <ele>1157.912018</ele>
        <time>2026-04-25T21:06:46.606Z</time>
      </trkpt>
      <trkpt lat="45.09236" lon="2.6661">
        <ele>1151.864284</ele>
        <time>2026-04-25T21:07:34.807Z</time>
      </trkpt>
      <trkpt lat="45.09171" lon="2.66636">
        <ele>1139.965045</ele>
        <time>2026-04-25T21:09:10.577Z</time>
      </trkpt>
      <trkpt lat="45.09136" lon="2.66645">
        <ele>1133.709632</ele>
        <time>2026-04-25T21:10:01.156Z</time>
      </trkpt>
      <trkpt lat="45.09104" lon="2.66644">
        <ele>1127.925943</ele>
        <time>2026-04-25T21:10:45.732Z</time>
      </trkpt>
      <trkpt lat="45.09034" lon="2.6665">
        <ele>1118.831999</ele>
        <time>2026-04-25T21:12:15.463Z</time>
      </trkpt>
      <trkpt lat="45.09007" lon="2.66636">
        <ele>1115.62884</ele>
        <time>2026-04-25T21:12:51.229Z</time>
      </trkpt>
      <trkpt lat="45.09002" lon="2.66599">
        <ele>1112.644775</ele>
        <time>2026-04-25T21:13:23.856Z</time>
      </trkpt>
      <trkpt lat="45.09003" lon="2.66577">
        <ele>1110.89271</ele>
        <time>2026-04-25T21:13:42.748Z</time>
      </trkpt>
      <trkpt lat="45.08997" lon="2.66574">
        <ele>1110.08627</ele>
        <time>2026-04-25T21:13:51.346Z</time>
      </trkpt>
      <trkpt lat="45.08953" lon="2.66643">
        <ele>1103.797812</ele>
        <time>2026-04-25T21:15:06.459Z</time>
      </trkpt>
      <trkpt lat="45.08945" lon="2.66654">
        <ele>1103.37223</ele>
        <time>2026-04-25T21:15:18.861Z</time>
      </trkpt>
      <trkpt lat="45.08923" lon="2.66657">
        <ele>1102.551166</ele>
        <time>2026-04-25T21:15:42.620Z</time>
      </trkpt>
      <trkpt lat="45.08917" lon="2.66649">
        <ele>1102.239337</ele>
        <time>2026-04-25T21:15:51.543Z</time>
      </trkpt>
      <trkpt lat="45.08892" lon="2.66636">
        <ele>1101.221393</ele>
        <time>2026-04-25T21:16:20.557Z</time>
      </trkpt>
      <trkpt lat="45.0888" lon="2.6662">
        <ele>1100.582725</ele>
        <time>2026-04-25T21:16:38.464Z</time>
      </trkpt>
      <trkpt lat="45.08868" lon="2.66615">
        <ele>1100.124953</ele>
        <time>2026-04-25T21:16:51.194Z</time>
      </trkpt>
      <trkpt lat="45.08864" lon="2.66621">
        <ele>1099.896135</ele>
        <time>2026-04-25T21:16:57.583Z</time>
      </trkpt>
      <trkpt lat="45.08861" lon="2.66679">
        <ele>1098.337681</ele>
        <time>2026-04-25T21:17:39.799Z</time>
      </trkpt>
      <trkpt lat="45.08856" lon="2.6669">
        <ele>1097.981103</ele>
        <time>2026-04-25T21:17:49.241Z</time>
      </trkpt>
      <trkpt lat="45.08824" lon="2.66711">
        <ele>1096.488209</ele>
        <time>2026-04-25T21:18:25.796Z</time>
      </trkpt>
      <trkpt lat="45.08811" lon="2.66724">
        <ele>1095.796237</ele>
        <time>2026-04-25T21:18:41.899Z</time>
      </trkpt>
      <trkpt lat="45.08793" lon="2.66778">
        <ele>1093.94133</ele>
        <time>2026-04-25T21:19:26.046Z</time>
      </trkpt>
      <trkpt lat="45.08763" lon="2.66817">
        <ele>1092.174841</ele>
        <time>2026-04-25T21:20:09.539Z</time>
      </trkpt>
      <trkpt lat="45.08734" lon="2.6683">
        <ele>1090.837804</ele>
        <time>2026-04-25T21:20:43.654Z</time>
      </trkpt>
      <trkpt lat="45.08701" lon="2.66857">
        <ele>1088.293896</ele>
        <time>2026-04-25T21:21:27.611Z</time>
      </trkpt>
      <trkpt lat="45.0869" lon="2.66875">
        <ele>1085.792178</ele>
        <time>2026-04-25T21:21:48.183Z</time>
      </trkpt>
      <trkpt lat="45.08678" lon="2.66902">
        <ele>1082.476306</ele>
        <time>2026-04-25T21:22:16.177Z</time>
      </trkpt>
      <trkpt lat="45.08662" lon="2.66926">
        <ele>1079.026642</ele>
        <time>2026-04-25T21:22:46.217Z</time>
      </trkpt>
      <trkpt lat="45.08635" lon="2.66936">
        <ele>1074.957434</ele>
        <time>2026-04-25T21:23:22.465Z</time>
      </trkpt>
      <trkpt lat="45.08529" lon="2.67003">
        <ele>1057.744162</ele>
        <time>2026-04-25T21:26:02.652Z</time>
      </trkpt>
      <trkpt lat="45.08512" lon="2.67029">
        <ele>1053.876376</ele>
        <time>2026-04-25T21:26:36.247Z</time>
      </trkpt>
      <trkpt lat="45.08487" lon="2.67048">
        <ele>1049.471547</ele>
        <time>2026-04-25T21:27:13.863Z</time>
      </trkpt>
      <trkpt lat="45.0848" lon="2.6705">
        <ele>1048.277872</ele>
        <time>2026-04-25T21:27:24.026Z</time>
      </trkpt>
      <trkpt lat="45.08449" lon="2.67032">
        <ele>1042.991982</ele>
        <time>2026-04-25T21:28:08.129Z</time>
      </trkpt>
      <trkpt lat="45.08419" lon="2.66996">
        <ele>1036.996172</ele>
        <time>2026-04-25T21:28:56.954Z</time>
      </trkpt>
      <trkpt lat="45.08409" lon="2.66996">
        <ele>1035.438752</ele>
        <time>2026-04-25T21:29:09.379Z</time>
      </trkpt>
      <trkpt lat="45.08399" lon="2.6699">
        <ele>1034.283358</ele>
        <time>2026-04-25T21:29:23.605Z</time>
      </trkpt>
      <trkpt lat="45.08393" lon="2.66993">
        <ele>1033.731084</ele>
        <time>2026-04-25T21:29:30.841Z</time>
      </trkpt>
      <trkpt lat="45.08415" lon="2.67073">
        <ele>1027.995357</ele>
        <time>2026-04-25T21:30:43.253Z</time>
      </trkpt>
      <trkpt lat="45.08442" lon="2.67127">
        <ele>1023.614666</ele>
        <time>2026-04-25T21:31:37.552Z</time>
      </trkpt>
      <trkpt lat="45.08409" lon="2.6713">
        <ele>1020.484044</ele>
        <time>2026-04-25T21:32:15.547Z</time>
      </trkpt>
      <trkpt lat="45.08348" lon="2.67112">
        <ele>1014.649918</ele>
        <time>2026-04-25T21:33:28.556Z</time>
      </trkpt>
      <trkpt lat="45.08337" lon="2.67106">
        <ele>1013.607366</ele>
        <time>2026-04-25T21:33:42.043Z</time>
      </trkpt>
      <trkpt lat="45.08331" lon="2.67097">
        <ele>1012.763101</ele>
        <time>2026-04-25T21:33:53.054Z</time>
      </trkpt>
      <trkpt lat="45.08329" lon="2.67102">
        <ele>1012.40268</ele>
        <time>2026-04-25T21:33:57.751Z</time>
      </trkpt>
      <trkpt lat="45.08334" lon="2.67139">
        <ele>1009.930889</ele>
        <time>2026-04-25T21:34:29.896Z</time>
      </trkpt>
      <trkpt lat="45.08317" lon="2.67142">
        <ele>1008.365556</ele>
        <time>2026-04-25T21:34:50.286Z</time>
      </trkpt>
      <trkpt lat="45.0831" lon="2.67139">
        <ele>1007.650682</ele>
        <time>2026-04-25T21:34:59.483Z</time>
      </trkpt>
      <trkpt lat="45.08301" lon="2.6718">
        <ele>1004.839022</ele>
        <time>2026-04-25T21:35:35.945Z</time>
      </trkpt>
      <trkpt lat="45.08298" lon="2.67189">
        <ele>1004.205483</ele>
        <time>2026-04-25T21:35:44.240Z</time>
      </trkpt>
      <trkpt lat="45.08301" lon="2.67206">
        <ele>1003.08782</ele>
        <time>2026-04-25T21:35:58.769Z</time>
      </trkpt>
      <trkpt lat="45.08311" lon="2.67218">
        <ele>1001.872596</ele>
        <time>2026-04-25T21:36:14.448Z</time>
      </trkpt>
      <trkpt lat="45.08315" lon="2.67232">
        <ele>1001.365703</ele>
        <time>2026-04-25T21:36:27.933Z</time>
      </trkpt>
      <trkpt lat="45.08333" lon="2.67266">
        <ele>1000.292831</ele>
        <time>2026-04-25T21:37:02.330Z</time>
      </trkpt>
      <trkpt lat="45.08347" lon="2.67305">
        <ele>999.158768</ele>
        <time>2026-04-25T21:37:36.989Z</time>
      </trkpt>
      <trkpt lat="45.08345" lon="2.67336">
        <ele>998.356736</ele>
        <time>2026-04-25T21:38:00.358Z</time>
      </trkpt>
      <trkpt lat="45.08353" lon="2.67368">
        <ele>997.487905</ele>
        <time>2026-04-25T21:38:24.694Z</time>
      </trkpt>
      <trkpt lat="45.08362" lon="2.67388">
        <ele>996.871578</ele>
        <time>2026-04-25T21:38:42.057Z</time>
      </trkpt>
      <trkpt lat="45.08382" lon="2.67431">
        <ele>995.561133</ele>
        <time>2026-04-25T21:39:18.622Z</time>
      </trkpt>
      <trkpt lat="45.08406" lon="2.67498">
        <ele>995.693808</ele>
        <time>2026-04-25T21:40:13.757Z</time>
      </trkpt>
      <trkpt lat="45.08392" lon="2.67502">
        <ele>995.875633</ele>
        <time>2026-04-25T21:40:29.466Z</time>
      </trkpt>
      <trkpt lat="45.08382" lon="2.67512">
        <ele>996.034106</ele>
        <time>2026-04-25T21:40:43.332Z</time>
      </trkpt>
      <trkpt lat="45.08376" lon="2.67554">
        <ele>996.411576</ele>
        <time>2026-04-25T21:41:16.248Z</time>
      </trkpt>
      <trkpt lat="45.08374" lon="2.6759">
        <ele>996.736509</ele>
        <time>2026-04-25T21:41:43.194Z</time>
      </trkpt>
      <trkpt lat="45.08376" lon="2.67624">
        <ele>997.047297</ele>
        <time>2026-04-25T21:42:08.030Z</time>
      </trkpt>
      <trkpt lat="45.08377" lon="2.67638">
        <ele>997.167698</ele>
        <time>2026-04-25T21:42:17.711Z</time>
      </trkpt>
      <trkpt lat="45.08376" lon="2.67667">
        <ele>997.429598</ele>
        <time>2026-04-25T21:42:38.714Z</time>
      </trkpt>
      <trkpt lat="45.08372" lon="2.67673">
        <ele>997.438604</ele>
        <time>2026-04-25T21:42:44.327Z</time>
      </trkpt>
      <trkpt lat="45.0834" lon="2.67626">
        <ele>997.436243</ele>
        <time>2026-04-25T21:43:32.299Z</time>
      </trkpt>
      <trkpt lat="45.08302" lon="2.67602">
        <ele>997.434114</ele>
        <time>2026-04-25T21:44:14.621Z</time>
      </trkpt>
      <trkpt lat="45.08283" lon="2.67587">
        <ele>997.433005</ele>
        <time>2026-04-25T21:44:36.615Z</time>
      </trkpt>
      <trkpt lat="45.08267" lon="2.67583">
        <ele>997.432165</ele>
        <time>2026-04-25T21:44:53.718Z</time>
      </trkpt>
      <trkpt lat="45.08244" lon="2.67551">
        <ele>997.430506</ele>
        <time>2026-04-25T21:45:26.939Z</time>
      </trkpt>
      <trkpt lat="45.08234" lon="2.67546">
        <ele>997.42996</ele>
        <time>2026-04-25T21:45:37.715Z</time>
      </trkpt>
      <trkpt lat="45.08205" lon="2.67512">
        <ele>997.317499</ele>
        <time>2026-04-25T21:46:15.585Z</time>
      </trkpt>
      <trkpt lat="45.08194" lon="2.67509">
        <ele>997.277767</ele>
        <time>2026-04-25T21:46:26.908Z</time>
      </trkpt>
      <trkpt lat="45.08173" lon="2.67483">
        <ele>997.179046</ele>
        <time>2026-04-25T21:46:54.898Z</time>
      </trkpt>
      <trkpt lat="45.0815" lon="2.67473">
        <ele>997.092782</ele>
        <time>2026-04-25T21:47:19.042Z</time>
      </trkpt>
      <trkpt lat="45.08142" lon="2.67464">
        <ele>997.05512</ele>
        <time>2026-04-25T21:47:29.600Z</time>
      </trkpt>
      <trkpt lat="45.08104" lon="2.6743">
        <ele>996.894732</ele>
        <time>2026-04-25T21:48:15.146Z</time>
      </trkpt>
      <trkpt lat="45.08058" lon="2.67397">
        <ele>996.172243</ele>
        <time>2026-04-25T21:49:08.136Z</time>
      </trkpt>
      <trkpt lat="45.08043" lon="2.67373">
        <ele>995.51399</ele>
        <time>2026-04-25T21:49:31.232Z</time>
      </trkpt>
      <trkpt lat="45.08022" lon="2.6735">
        <ele>994.764557</ele>
        <time>2026-04-25T21:49:57.981Z</time>
      </trkpt>
      <trkpt lat="45.07989" lon="2.67332">
        <ele>993.760996</ele>
        <time>2026-04-25T21:50:34.782Z</time>
      </trkpt>
      <trkpt lat="45.07953" lon="2.67269">
        <ele>992.124892</ele>
        <time>2026-04-25T21:51:36.547Z</time>
      </trkpt>
      <trkpt lat="45.07908" lon="2.67152">
        <ele>991.617634</ele>
        <time>2026-04-25T21:53:22.223Z</time>
      </trkpt>
      <trkpt lat="45.079" lon="2.67113">
        <ele>991.617634</ele>
        <time>2026-04-25T21:53:55.719Z</time>
      </trkpt>
      <trkpt lat="45.0788" lon="2.67066">
        <ele>991.617634</ele>
        <time>2026-04-25T21:54:40.006Z</time>
      </trkpt>
      <trkpt lat="45.07878" lon="2.67054">
        <ele>991.617634</ele>
        <time>2026-04-25T21:54:49.834Z</time>
      </trkpt>
      <trkpt lat="45.07877" lon="2.6703">
        <ele>991.617634</ele>
        <time>2026-04-25T21:55:08.714Z</time>
      </trkpt>
      <trkpt lat="45.07856" lon="2.66978">
        <ele>991.617634</ele>
        <time>2026-04-25T21:55:54.782Z</time>
      </trkpt>
    </trkseg>
  </trk>
</gpx>